<?xml version="1.0" encoding="UTF-8" standalone="no" ?>
<gpx xmlns="http://www.topografix.com/GPX/1/1" xmlns:xsi="http://www.w3.org/2001/XMLSchema-instance" xsi:schemaLocation="http://www.topografix.com/GPX/1/1 http://www.topografix.com/GPX/1/1/gpx.xsd" version="1.1" creator="VisuGPX - https://www.visugpx.com">
  <metadata>
    <name>VTT du mercredi 6 septembre 2017</name>
    <desc><![CDATA[C'est avec Jacques que nous avons fait le parcours du mercredi 10 mai 2017, mais en sens inverse ce qui n'est pas mal du tout. A la sortie de Flagy, on a monté les Longues Côtes sous la pluie (qui nous a accompagnés jusqu'à Fanicamp).]]></desc>
  </metadata>
  <trk>
    <name><![CDATA[2017-09-06 09:37]]></name>
    <desc><![CDATA[<p>Heure de départ: 09/06/2017 09:37<br/>Heure d'arrivée: 09/06/2017 11:39<br/>Distance: 24,6 km (02:01)<br/>Temps déplacement: 01:53<br/>Vitesse moyenne: 12,14 km/h<br/>Vitesse moyenne mouv.: 13,04 km/h<br/>Vitesse Max.: 46,9 km/h<br/>Altitude minimale: 230 m<br/>Altitude maximale: 329 m<br/>Vitesse de montée: 225 m/h<br/>Vitesse de descente: -379,3 m/h<br/>Gain d'altitude: 208 m<br/>Perte d'altitude: -200 m<br/>Temps de montée: 00:55<br/>Temps de descente: 00:31<br/></p><hr align="center" width="480" style="height: 2px; width: 517px"/>]]></desc>
    <trkseg>
      <trkpt lat="47.64435" lon="6.1831">
        <ele>237.27</ele>
        <time>2017-09-06T07:37:55Z</time>
      </trkpt>
      <trkpt lat="47.64447" lon="6.1829">
        <ele>237.27</ele>
        <time>2017-09-06T07:38:06Z</time>
      </trkpt>
      <trkpt lat="47.64463" lon="6.18271">
        <ele>234.89</ele>
        <time>2017-09-06T07:38:14Z</time>
      </trkpt>
      <trkpt lat="47.64476" lon="6.1825">
        <ele>233.46</ele>
        <time>2017-09-06T07:38:20Z</time>
      </trkpt>
      <trkpt lat="47.64487" lon="6.18228">
        <ele>232.42</ele>
        <time>2017-09-06T07:38:25Z</time>
      </trkpt>
      <trkpt lat="47.64497" lon="6.18205">
        <ele>232.31</ele>
        <time>2017-09-06T07:38:32Z</time>
      </trkpt>
      <trkpt lat="47.64502" lon="6.18175">
        <ele>232.02</ele>
        <time>2017-09-06T07:38:37Z</time>
      </trkpt>
      <trkpt lat="47.64494" lon="6.18149">
        <ele>232.03</ele>
        <time>2017-09-06T07:38:41Z</time>
      </trkpt>
      <trkpt lat="47.64498" lon="6.18121">
        <ele>232.03</ele>
        <time>2017-09-06T07:38:46Z</time>
      </trkpt>
      <trkpt lat="47.64505" lon="6.18093">
        <ele>232.08</ele>
        <time>2017-09-06T07:38:52Z</time>
      </trkpt>
      <trkpt lat="47.64512" lon="6.18067">
        <ele>232.15</ele>
        <time>2017-09-06T07:38:58Z</time>
      </trkpt>
      <trkpt lat="47.64499" lon="6.18046">
        <ele>232.32</ele>
        <time>2017-09-06T07:39:08Z</time>
      </trkpt>
      <trkpt lat="47.6448" lon="6.18034">
        <ele>233.07</ele>
        <time>2017-09-06T07:39:13Z</time>
      </trkpt>
      <trkpt lat="47.64465" lon="6.18018">
        <ele>233.54</ele>
        <time>2017-09-06T07:39:17Z</time>
      </trkpt>
      <trkpt lat="47.6445" lon="6.17995">
        <ele>233.63</ele>
        <time>2017-09-06T07:39:22Z</time>
      </trkpt>
      <trkpt lat="47.64439" lon="6.17973">
        <ele>233.6</ele>
        <time>2017-09-06T07:39:27Z</time>
      </trkpt>
      <trkpt lat="47.64425" lon="6.17954">
        <ele>233.54</ele>
        <time>2017-09-06T07:39:33Z</time>
      </trkpt>
      <trkpt lat="47.64414" lon="6.17929">
        <ele>233.5</ele>
        <time>2017-09-06T07:39:39Z</time>
      </trkpt>
      <trkpt lat="47.64402" lon="6.17906">
        <ele>233.51</ele>
        <time>2017-09-06T07:39:44Z</time>
      </trkpt>
      <trkpt lat="47.6439" lon="6.17883">
        <ele>233.49</ele>
        <time>2017-09-06T07:39:49Z</time>
      </trkpt>
      <trkpt lat="47.64376" lon="6.17862">
        <ele>233.49</ele>
        <time>2017-09-06T07:39:54Z</time>
      </trkpt>
      <trkpt lat="47.6436" lon="6.17844">
        <ele>233.52</ele>
        <time>2017-09-06T07:39:59Z</time>
      </trkpt>
      <trkpt lat="47.64349" lon="6.17817">
        <ele>233.6</ele>
        <time>2017-09-06T07:40:05Z</time>
      </trkpt>
      <trkpt lat="47.64333" lon="6.17805">
        <ele>233.72</ele>
        <time>2017-09-06T07:40:09Z</time>
      </trkpt>
      <trkpt lat="47.64315" lon="6.17794">
        <ele>233.75</ele>
        <time>2017-09-06T07:40:13Z</time>
      </trkpt>
      <trkpt lat="47.64296" lon="6.17784">
        <ele>233.71</ele>
        <time>2017-09-06T07:40:17Z</time>
      </trkpt>
      <trkpt lat="47.64279" lon="6.17774">
        <ele>233.62</ele>
        <time>2017-09-06T07:40:21Z</time>
      </trkpt>
      <trkpt lat="47.64262" lon="6.17763">
        <ele>233.45</ele>
        <time>2017-09-06T07:40:25Z</time>
      </trkpt>
      <trkpt lat="47.64242" lon="6.17749">
        <ele>233.1</ele>
        <time>2017-09-06T07:40:30Z</time>
      </trkpt>
      <trkpt lat="47.64223" lon="6.17731">
        <ele>232.88</ele>
        <time>2017-09-06T07:40:35Z</time>
      </trkpt>
      <trkpt lat="47.64208" lon="6.17713">
        <ele>232.76</ele>
        <time>2017-09-06T07:40:39Z</time>
      </trkpt>
      <trkpt lat="47.64194" lon="6.17693">
        <ele>232.67</ele>
        <time>2017-09-06T07:40:43Z</time>
      </trkpt>
      <trkpt lat="47.6418" lon="6.17674">
        <ele>232.62</ele>
        <time>2017-09-06T07:40:47Z</time>
      </trkpt>
      <trkpt lat="47.64164" lon="6.17653">
        <ele>232.58</ele>
        <time>2017-09-06T07:40:52Z</time>
      </trkpt>
      <trkpt lat="47.64151" lon="6.17635">
        <ele>232.55</ele>
        <time>2017-09-06T07:40:56Z</time>
      </trkpt>
      <trkpt lat="47.64137" lon="6.17618">
        <ele>232.52</ele>
        <time>2017-09-06T07:41:00Z</time>
      </trkpt>
      <trkpt lat="47.64124" lon="6.17598">
        <ele>232.53</ele>
        <time>2017-09-06T07:41:04Z</time>
      </trkpt>
      <trkpt lat="47.64108" lon="6.17575">
        <ele>232.54</ele>
        <time>2017-09-06T07:41:09Z</time>
      </trkpt>
      <trkpt lat="47.64092" lon="6.17553">
        <ele>232.51</ele>
        <time>2017-09-06T07:41:14Z</time>
      </trkpt>
      <trkpt lat="47.64077" lon="6.1753">
        <ele>232.45</ele>
        <time>2017-09-06T07:41:19Z</time>
      </trkpt>
      <trkpt lat="47.6406" lon="6.17508">
        <ele>232.42</ele>
        <time>2017-09-06T07:41:24Z</time>
      </trkpt>
      <trkpt lat="47.64043" lon="6.17487">
        <ele>232.43</ele>
        <time>2017-09-06T07:41:29Z</time>
      </trkpt>
      <trkpt lat="47.6403" lon="6.17467">
        <ele>232.46</ele>
        <time>2017-09-06T07:41:33Z</time>
      </trkpt>
      <trkpt lat="47.64017" lon="6.17448">
        <ele>232.5</ele>
        <time>2017-09-06T07:41:37Z</time>
      </trkpt>
      <trkpt lat="47.64002" lon="6.17429">
        <ele>232.5</ele>
        <time>2017-09-06T07:41:44Z</time>
      </trkpt>
      <trkpt lat="47.64007" lon="6.17403">
        <ele>232.43</ele>
        <time>2017-09-06T07:41:54Z</time>
      </trkpt>
      <trkpt lat="47.64024" lon="6.17391">
        <ele>232.13</ele>
        <time>2017-09-06T07:41:59Z</time>
      </trkpt>
      <trkpt lat="47.64043" lon="6.17378">
        <ele>231.76</ele>
        <time>2017-09-06T07:42:04Z</time>
      </trkpt>
      <trkpt lat="47.64059" lon="6.17363">
        <ele>231.52</ele>
        <time>2017-09-06T07:42:09Z</time>
      </trkpt>
      <trkpt lat="47.64075" lon="6.17347">
        <ele>231.34</ele>
        <time>2017-09-06T07:42:14Z</time>
      </trkpt>
      <trkpt lat="47.64089" lon="6.17327">
        <ele>231.15</ele>
        <time>2017-09-06T07:42:19Z</time>
      </trkpt>
      <trkpt lat="47.64102" lon="6.17306">
        <ele>231.07</ele>
        <time>2017-09-06T07:42:24Z</time>
      </trkpt>
      <trkpt lat="47.64116" lon="6.17282">
        <ele>230.99</ele>
        <time>2017-09-06T07:42:30Z</time>
      </trkpt>
      <trkpt lat="47.64127" lon="6.17261">
        <ele>230.96</ele>
        <time>2017-09-06T07:42:35Z</time>
      </trkpt>
      <trkpt lat="47.64138" lon="6.17238">
        <ele>230.96</ele>
        <time>2017-09-06T07:42:40Z</time>
      </trkpt>
      <trkpt lat="47.64145" lon="6.1721">
        <ele>230.97</ele>
        <time>2017-09-06T07:42:46Z</time>
      </trkpt>
      <trkpt lat="47.6415" lon="6.17181">
        <ele>230.99</ele>
        <time>2017-09-06T07:42:52Z</time>
      </trkpt>
      <trkpt lat="47.64156" lon="6.17154">
        <ele>231.03</ele>
        <time>2017-09-06T07:42:58Z</time>
      </trkpt>
      <trkpt lat="47.64162" lon="6.17125">
        <ele>231.11</ele>
        <time>2017-09-06T07:43:06Z</time>
      </trkpt>
      <trkpt lat="47.64168" lon="6.171">
        <ele>231.22</ele>
        <time>2017-09-06T07:43:14Z</time>
      </trkpt>
      <trkpt lat="47.64176" lon="6.17075">
        <ele>231.38</ele>
        <time>2017-09-06T07:43:23Z</time>
      </trkpt>
      <trkpt lat="47.64181" lon="6.17048">
        <ele>231.61</ele>
        <time>2017-09-06T07:43:34Z</time>
      </trkpt>
      <trkpt lat="47.64189" lon="6.17021">
        <ele>231.91</ele>
        <time>2017-09-06T07:43:45Z</time>
      </trkpt>
      <trkpt lat="47.64197" lon="6.16994">
        <ele>232.24</ele>
        <time>2017-09-06T07:43:55Z</time>
      </trkpt>
      <trkpt lat="47.64203" lon="6.16969">
        <ele>232.57</ele>
        <time>2017-09-06T07:44:04Z</time>
      </trkpt>
      <trkpt lat="47.64209" lon="6.16942">
        <ele>232.93</ele>
        <time>2017-09-06T07:44:13Z</time>
      </trkpt>
      <trkpt lat="47.64216" lon="6.16917">
        <ele>233.27</ele>
        <time>2017-09-06T07:44:21Z</time>
      </trkpt>
      <trkpt lat="47.64223" lon="6.16891">
        <ele>233.63</ele>
        <time>2017-09-06T07:44:29Z</time>
      </trkpt>
      <trkpt lat="47.64228" lon="6.16864">
        <ele>233.97</ele>
        <time>2017-09-06T07:44:36Z</time>
      </trkpt>
      <trkpt lat="47.64234" lon="6.16839">
        <ele>234.26</ele>
        <time>2017-09-06T07:44:42Z</time>
      </trkpt>
      <trkpt lat="47.6424" lon="6.1681">
        <ele>234.56</ele>
        <time>2017-09-06T07:44:48Z</time>
      </trkpt>
      <trkpt lat="47.64246" lon="6.1678">
        <ele>234.86</ele>
        <time>2017-09-06T07:44:54Z</time>
      </trkpt>
      <trkpt lat="47.64253" lon="6.16755">
        <ele>235.87</ele>
        <time>2017-09-06T07:44:59Z</time>
      </trkpt>
      <trkpt lat="47.6426" lon="6.16729">
        <ele>236.12</ele>
        <time>2017-09-06T07:45:05Z</time>
      </trkpt>
      <trkpt lat="47.64269" lon="6.16704">
        <ele>236.4</ele>
        <time>2017-09-06T07:45:13Z</time>
      </trkpt>
      <trkpt lat="47.64275" lon="6.16677">
        <ele>237.05</ele>
        <time>2017-09-06T07:45:18Z</time>
      </trkpt>
      <trkpt lat="47.64283" lon="6.1665">
        <ele>237.81</ele>
        <time>2017-09-06T07:45:22Z</time>
      </trkpt>
      <trkpt lat="47.64289" lon="6.16622">
        <ele>238.15</ele>
        <time>2017-09-06T07:45:26Z</time>
      </trkpt>
      <trkpt lat="47.64296" lon="6.16595">
        <ele>238.31</ele>
        <time>2017-09-06T07:45:30Z</time>
      </trkpt>
      <trkpt lat="47.64303" lon="6.16569">
        <ele>238.41</ele>
        <time>2017-09-06T07:45:34Z</time>
      </trkpt>
      <trkpt lat="47.64311" lon="6.16542">
        <ele>238.49</ele>
        <time>2017-09-06T07:45:38Z</time>
      </trkpt>
      <trkpt lat="47.64319" lon="6.16514">
        <ele>238.6</ele>
        <time>2017-09-06T07:45:43Z</time>
      </trkpt>
      <trkpt lat="47.64327" lon="6.16486">
        <ele>238.73</ele>
        <time>2017-09-06T07:45:48Z</time>
      </trkpt>
      <trkpt lat="47.64333" lon="6.16459">
        <ele>238.87</ele>
        <time>2017-09-06T07:45:53Z</time>
      </trkpt>
      <trkpt lat="47.64341" lon="6.16434">
        <ele>238.97</ele>
        <time>2017-09-06T07:45:58Z</time>
      </trkpt>
      <trkpt lat="47.64349" lon="6.16405">
        <ele>239</ele>
        <time>2017-09-06T07:46:04Z</time>
      </trkpt>
      <trkpt lat="47.64357" lon="6.16378">
        <ele>239.05</ele>
        <time>2017-09-06T07:46:10Z</time>
      </trkpt>
      <trkpt lat="47.64364" lon="6.16352">
        <ele>239.12</ele>
        <time>2017-09-06T07:46:16Z</time>
      </trkpt>
      <trkpt lat="47.64381" lon="6.16339">
        <ele>239.33</ele>
        <time>2017-09-06T07:46:23Z</time>
      </trkpt>
      <trkpt lat="47.64402" lon="6.1634">
        <ele>239.85</ele>
        <time>2017-09-06T07:46:28Z</time>
      </trkpt>
      <trkpt lat="47.64424" lon="6.16347">
        <ele>240.11</ele>
        <time>2017-09-06T07:46:33Z</time>
      </trkpt>
      <trkpt lat="47.64445" lon="6.16349">
        <ele>240.25</ele>
        <time>2017-09-06T07:46:38Z</time>
      </trkpt>
      <trkpt lat="47.64467" lon="6.16356">
        <ele>240.35</ele>
        <time>2017-09-06T07:46:43Z</time>
      </trkpt>
      <trkpt lat="47.64487" lon="6.1636">
        <ele>240.42</ele>
        <time>2017-09-06T07:46:48Z</time>
      </trkpt>
      <trkpt lat="47.6451" lon="6.16364">
        <ele>240.47</ele>
        <time>2017-09-06T07:46:53Z</time>
      </trkpt>
      <trkpt lat="47.64529" lon="6.16369">
        <ele>240.49</ele>
        <time>2017-09-06T07:46:57Z</time>
      </trkpt>
      <trkpt lat="47.64552" lon="6.16374">
        <ele>240.52</ele>
        <time>2017-09-06T07:47:01Z</time>
      </trkpt>
      <trkpt lat="47.64572" lon="6.1638">
        <ele>240.57</ele>
        <time>2017-09-06T07:47:05Z</time>
      </trkpt>
      <trkpt lat="47.64593" lon="6.16382">
        <ele>240.64</ele>
        <time>2017-09-06T07:47:10Z</time>
      </trkpt>
      <trkpt lat="47.64614" lon="6.16384">
        <ele>240.7</ele>
        <time>2017-09-06T07:47:15Z</time>
      </trkpt>
      <trkpt lat="47.64635" lon="6.16389">
        <ele>240.77</ele>
        <time>2017-09-06T07:47:20Z</time>
      </trkpt>
      <trkpt lat="47.64657" lon="6.16393">
        <ele>240.82</ele>
        <time>2017-09-06T07:47:25Z</time>
      </trkpt>
      <trkpt lat="47.64678" lon="6.16397">
        <ele>240.86</ele>
        <time>2017-09-06T07:47:30Z</time>
      </trkpt>
      <trkpt lat="47.647" lon="6.16401">
        <ele>240.92</ele>
        <time>2017-09-06T07:47:35Z</time>
      </trkpt>
      <trkpt lat="47.64721" lon="6.16405">
        <ele>241</ele>
        <time>2017-09-06T07:47:40Z</time>
      </trkpt>
      <trkpt lat="47.6474" lon="6.16407">
        <ele>241.05</ele>
        <time>2017-09-06T07:47:45Z</time>
      </trkpt>
      <trkpt lat="47.64758" lon="6.16412">
        <ele>241.07</ele>
        <time>2017-09-06T07:47:50Z</time>
      </trkpt>
      <trkpt lat="47.64778" lon="6.16416">
        <ele>241.09</ele>
        <time>2017-09-06T07:47:56Z</time>
      </trkpt>
      <trkpt lat="47.64796" lon="6.1642">
        <ele>241.29</ele>
        <time>2017-09-06T07:48:01Z</time>
      </trkpt>
      <trkpt lat="47.64817" lon="6.16423">
        <ele>241.49</ele>
        <time>2017-09-06T07:48:06Z</time>
      </trkpt>
      <trkpt lat="47.64838" lon="6.16426">
        <ele>241.65</ele>
        <time>2017-09-06T07:48:11Z</time>
      </trkpt>
      <trkpt lat="47.64856" lon="6.16429">
        <ele>241.75</ele>
        <time>2017-09-06T07:48:15Z</time>
      </trkpt>
      <trkpt lat="47.64876" lon="6.16432">
        <ele>241.85</ele>
        <time>2017-09-06T07:48:19Z</time>
      </trkpt>
      <trkpt lat="47.64897" lon="6.16437">
        <ele>241.91</ele>
        <time>2017-09-06T07:48:23Z</time>
      </trkpt>
      <trkpt lat="47.64918" lon="6.16441">
        <ele>241.96</ele>
        <time>2017-09-06T07:48:27Z</time>
      </trkpt>
      <trkpt lat="47.64939" lon="6.16444">
        <ele>242</ele>
        <time>2017-09-06T07:48:31Z</time>
      </trkpt>
      <trkpt lat="47.6496" lon="6.16448">
        <ele>242.04</ele>
        <time>2017-09-06T07:48:35Z</time>
      </trkpt>
      <trkpt lat="47.64981" lon="6.16451">
        <ele>242.1</ele>
        <time>2017-09-06T07:48:39Z</time>
      </trkpt>
      <trkpt lat="47.65001" lon="6.16455">
        <ele>242.15</ele>
        <time>2017-09-06T07:48:43Z</time>
      </trkpt>
      <trkpt lat="47.65019" lon="6.16458">
        <ele>242.2</ele>
        <time>2017-09-06T07:48:47Z</time>
      </trkpt>
      <trkpt lat="47.65037" lon="6.16461">
        <ele>242.24</ele>
        <time>2017-09-06T07:48:51Z</time>
      </trkpt>
      <trkpt lat="47.65058" lon="6.16465">
        <ele>242.29</ele>
        <time>2017-09-06T07:48:55Z</time>
      </trkpt>
      <trkpt lat="47.65081" lon="6.1647">
        <ele>242.32</ele>
        <time>2017-09-06T07:48:59Z</time>
      </trkpt>
      <trkpt lat="47.65101" lon="6.16475">
        <ele>242.29</ele>
        <time>2017-09-06T07:49:02Z</time>
      </trkpt>
      <trkpt lat="47.65122" lon="6.16479">
        <ele>242.24</ele>
        <time>2017-09-06T07:49:05Z</time>
      </trkpt>
      <trkpt lat="47.65144" lon="6.16483">
        <ele>242.09</ele>
        <time>2017-09-06T07:49:08Z</time>
      </trkpt>
      <trkpt lat="47.65168" lon="6.16487">
        <ele>241.89</ele>
        <time>2017-09-06T07:49:11Z</time>
      </trkpt>
      <trkpt lat="47.65191" lon="6.16492">
        <ele>241.72</ele>
        <time>2017-09-06T07:49:14Z</time>
      </trkpt>
      <trkpt lat="47.65216" lon="6.16497">
        <ele>241.48</ele>
        <time>2017-09-06T07:49:17Z</time>
      </trkpt>
      <trkpt lat="47.65241" lon="6.16502">
        <ele>241.31</ele>
        <time>2017-09-06T07:49:20Z</time>
      </trkpt>
      <trkpt lat="47.65264" lon="6.16505">
        <ele>241.34</ele>
        <time>2017-09-06T07:49:23Z</time>
      </trkpt>
      <trkpt lat="47.65285" lon="6.16509">
        <ele>241.28</ele>
        <time>2017-09-06T07:49:26Z</time>
      </trkpt>
      <trkpt lat="47.65304" lon="6.16513">
        <ele>241.19</ele>
        <time>2017-09-06T07:49:29Z</time>
      </trkpt>
      <trkpt lat="47.65322" lon="6.16516">
        <ele>241.09</ele>
        <time>2017-09-06T07:49:32Z</time>
      </trkpt>
      <trkpt lat="47.65341" lon="6.1652">
        <ele>240.97</ele>
        <time>2017-09-06T07:49:35Z</time>
      </trkpt>
      <trkpt lat="47.6536" lon="6.16523">
        <ele>240.78</ele>
        <time>2017-09-06T07:49:38Z</time>
      </trkpt>
      <trkpt lat="47.6538" lon="6.16527">
        <ele>240.65</ele>
        <time>2017-09-06T07:49:41Z</time>
      </trkpt>
      <trkpt lat="47.654" lon="6.16531">
        <ele>240.48</ele>
        <time>2017-09-06T07:49:44Z</time>
      </trkpt>
      <trkpt lat="47.65419" lon="6.16534">
        <ele>240.27</ele>
        <time>2017-09-06T07:49:47Z</time>
      </trkpt>
      <trkpt lat="47.65442" lon="6.16539">
        <ele>240.28</ele>
        <time>2017-09-06T07:49:51Z</time>
      </trkpt>
      <trkpt lat="47.65465" lon="6.16542">
        <ele>240.06</ele>
        <time>2017-09-06T07:49:55Z</time>
      </trkpt>
      <trkpt lat="47.65488" lon="6.16545">
        <ele>239.64</ele>
        <time>2017-09-06T07:49:59Z</time>
      </trkpt>
      <trkpt lat="47.65509" lon="6.16548">
        <ele>239.52</ele>
        <time>2017-09-06T07:50:03Z</time>
      </trkpt>
      <trkpt lat="47.6553" lon="6.16552">
        <ele>239.08</ele>
        <time>2017-09-06T07:50:08Z</time>
      </trkpt>
      <trkpt lat="47.65546" lon="6.16535">
        <ele>238.55</ele>
        <time>2017-09-06T07:50:13Z</time>
      </trkpt>
      <trkpt lat="47.65558" lon="6.16509">
        <ele>238.03</ele>
        <time>2017-09-06T07:50:17Z</time>
      </trkpt>
      <trkpt lat="47.65571" lon="6.16489">
        <ele>237.6</ele>
        <time>2017-09-06T07:50:20Z</time>
      </trkpt>
      <trkpt lat="47.65586" lon="6.16466">
        <ele>237.01</ele>
        <time>2017-09-06T07:50:24Z</time>
      </trkpt>
      <trkpt lat="47.65602" lon="6.16443">
        <ele>236.38</ele>
        <time>2017-09-06T07:50:28Z</time>
      </trkpt>
      <trkpt lat="47.65618" lon="6.16419">
        <ele>235.94</ele>
        <time>2017-09-06T07:50:32Z</time>
      </trkpt>
      <trkpt lat="47.65632" lon="6.16399">
        <ele>235.79</ele>
        <time>2017-09-06T07:50:35Z</time>
      </trkpt>
      <trkpt lat="47.65645" lon="6.16379">
        <ele>235.71</ele>
        <time>2017-09-06T07:50:38Z</time>
      </trkpt>
      <trkpt lat="47.65659" lon="6.16356">
        <ele>235.7</ele>
        <time>2017-09-06T07:50:42Z</time>
      </trkpt>
      <trkpt lat="47.65672" lon="6.16335">
        <ele>235.74</ele>
        <time>2017-09-06T07:50:46Z</time>
      </trkpt>
      <trkpt lat="47.65688" lon="6.16315">
        <ele>235.75</ele>
        <time>2017-09-06T07:50:50Z</time>
      </trkpt>
      <trkpt lat="47.65702" lon="6.16294">
        <ele>235.74</ele>
        <time>2017-09-06T07:50:54Z</time>
      </trkpt>
      <trkpt lat="47.65718" lon="6.16271">
        <ele>235.64</ele>
        <time>2017-09-06T07:50:58Z</time>
      </trkpt>
      <trkpt lat="47.65733" lon="6.16248">
        <ele>235.51</ele>
        <time>2017-09-06T07:51:02Z</time>
      </trkpt>
      <trkpt lat="47.65749" lon="6.16227">
        <ele>235.39</ele>
        <time>2017-09-06T07:51:06Z</time>
      </trkpt>
      <trkpt lat="47.65763" lon="6.16207">
        <ele>235.23</ele>
        <time>2017-09-06T07:51:10Z</time>
      </trkpt>
      <trkpt lat="47.65777" lon="6.16186">
        <ele>235.04</ele>
        <time>2017-09-06T07:51:14Z</time>
      </trkpt>
      <trkpt lat="47.65793" lon="6.16164">
        <ele>234.94</ele>
        <time>2017-09-06T07:51:19Z</time>
      </trkpt>
      <trkpt lat="47.65807" lon="6.16142">
        <ele>234.95</ele>
        <time>2017-09-06T07:51:24Z</time>
      </trkpt>
      <trkpt lat="47.6582" lon="6.16124">
        <ele>234.93</ele>
        <time>2017-09-06T07:51:29Z</time>
      </trkpt>
      <trkpt lat="47.65835" lon="6.16104">
        <ele>234.9</ele>
        <time>2017-09-06T07:51:35Z</time>
      </trkpt>
      <trkpt lat="47.65849" lon="6.16083">
        <ele>234.87</ele>
        <time>2017-09-06T07:51:41Z</time>
      </trkpt>
      <trkpt lat="47.65862" lon="6.16064">
        <ele>234.85</ele>
        <time>2017-09-06T07:51:47Z</time>
      </trkpt>
      <trkpt lat="47.65878" lon="6.16044">
        <ele>234.84</ele>
        <time>2017-09-06T07:51:53Z</time>
      </trkpt>
      <trkpt lat="47.65891" lon="6.16023">
        <ele>234.86</ele>
        <time>2017-09-06T07:51:59Z</time>
      </trkpt>
      <trkpt lat="47.65904" lon="6.16002">
        <ele>234.89</ele>
        <time>2017-09-06T07:52:05Z</time>
      </trkpt>
      <trkpt lat="47.65919" lon="6.15979">
        <ele>234.9</ele>
        <time>2017-09-06T07:52:10Z</time>
      </trkpt>
      <trkpt lat="47.65927" lon="6.15952">
        <ele>234.89</ele>
        <time>2017-09-06T07:52:16Z</time>
      </trkpt>
      <trkpt lat="47.65916" lon="6.15928">
        <ele>234.89</ele>
        <time>2017-09-06T07:52:21Z</time>
      </trkpt>
      <trkpt lat="47.65906" lon="6.15907">
        <ele>234.9</ele>
        <time>2017-09-06T07:52:25Z</time>
      </trkpt>
      <trkpt lat="47.65894" lon="6.15886">
        <ele>235.01</ele>
        <time>2017-09-06T07:52:29Z</time>
      </trkpt>
      <trkpt lat="47.6588" lon="6.15865">
        <ele>235.06</ele>
        <time>2017-09-06T07:52:35Z</time>
      </trkpt>
      <trkpt lat="47.65868" lon="6.15839">
        <ele>235.21</ele>
        <time>2017-09-06T07:52:41Z</time>
      </trkpt>
      <trkpt lat="47.65861" lon="6.15809">
        <ele>235.43</ele>
        <time>2017-09-06T07:52:46Z</time>
      </trkpt>
      <trkpt lat="47.65855" lon="6.15781">
        <ele>235.57</ele>
        <time>2017-09-06T07:52:51Z</time>
      </trkpt>
      <trkpt lat="47.6585" lon="6.15751">
        <ele>235.63</ele>
        <time>2017-09-06T07:52:56Z</time>
      </trkpt>
      <trkpt lat="47.65843" lon="6.1572">
        <ele>235.57</ele>
        <time>2017-09-06T07:53:01Z</time>
      </trkpt>
      <trkpt lat="47.65837" lon="6.15688">
        <ele>235.46</ele>
        <time>2017-09-06T07:53:06Z</time>
      </trkpt>
      <trkpt lat="47.65832" lon="6.1566">
        <ele>235.33</ele>
        <time>2017-09-06T07:53:10Z</time>
      </trkpt>
      <trkpt lat="47.65826" lon="6.15632">
        <ele>235.16</ele>
        <time>2017-09-06T07:53:14Z</time>
      </trkpt>
      <trkpt lat="47.65821" lon="6.15605">
        <ele>234.96</ele>
        <time>2017-09-06T07:53:18Z</time>
      </trkpt>
      <trkpt lat="47.65816" lon="6.15578">
        <ele>234.76</ele>
        <time>2017-09-06T07:53:22Z</time>
      </trkpt>
      <trkpt lat="47.65811" lon="6.15549">
        <ele>234.57</ele>
        <time>2017-09-06T07:53:26Z</time>
      </trkpt>
      <trkpt lat="47.65805" lon="6.15521">
        <ele>234.43</ele>
        <time>2017-09-06T07:53:30Z</time>
      </trkpt>
      <trkpt lat="47.65799" lon="6.15491">
        <ele>234.28</ele>
        <time>2017-09-06T07:53:34Z</time>
      </trkpt>
      <trkpt lat="47.65793" lon="6.1546">
        <ele>234.01</ele>
        <time>2017-09-06T07:53:38Z</time>
      </trkpt>
      <trkpt lat="47.65786" lon="6.15429">
        <ele>233.66</ele>
        <time>2017-09-06T07:53:42Z</time>
      </trkpt>
      <trkpt lat="47.65781" lon="6.154">
        <ele>233.25</ele>
        <time>2017-09-06T07:53:46Z</time>
      </trkpt>
      <trkpt lat="47.65776" lon="6.15372">
        <ele>232.85</ele>
        <time>2017-09-06T07:53:51Z</time>
      </trkpt>
      <trkpt lat="47.65771" lon="6.15343">
        <ele>232.73</ele>
        <time>2017-09-06T07:53:57Z</time>
      </trkpt>
      <trkpt lat="47.65766" lon="6.15314">
        <ele>232.58</ele>
        <time>2017-09-06T07:54:03Z</time>
      </trkpt>
      <trkpt lat="47.65761" lon="6.15285">
        <ele>232.42</ele>
        <time>2017-09-06T07:54:09Z</time>
      </trkpt>
      <trkpt lat="47.65754" lon="6.15257">
        <ele>232.22</ele>
        <time>2017-09-06T07:54:17Z</time>
      </trkpt>
      <trkpt lat="47.65749" lon="6.1523">
        <ele>232.07</ele>
        <time>2017-09-06T07:54:25Z</time>
      </trkpt>
      <trkpt lat="47.65743" lon="6.15202">
        <ele>231.97</ele>
        <time>2017-09-06T07:54:33Z</time>
      </trkpt>
      <trkpt lat="47.65738" lon="6.15174">
        <ele>231.91</ele>
        <time>2017-09-06T07:54:41Z</time>
      </trkpt>
      <trkpt lat="47.65732" lon="6.15146">
        <ele>231.87</ele>
        <time>2017-09-06T07:54:48Z</time>
      </trkpt>
      <trkpt lat="47.65726" lon="6.1512">
        <ele>231.85</ele>
        <time>2017-09-06T07:54:55Z</time>
      </trkpt>
      <trkpt lat="47.65721" lon="6.15094">
        <ele>231.82</ele>
        <time>2017-09-06T07:55:02Z</time>
      </trkpt>
      <trkpt lat="47.65715" lon="6.15066">
        <ele>231.81</ele>
        <time>2017-09-06T07:55:09Z</time>
      </trkpt>
      <trkpt lat="47.65708" lon="6.15039">
        <ele>231.8</ele>
        <time>2017-09-06T07:55:16Z</time>
      </trkpt>
      <trkpt lat="47.65723" lon="6.15021">
        <ele>231.78</ele>
        <time>2017-09-06T07:55:26Z</time>
      </trkpt>
      <trkpt lat="47.65742" lon="6.15021">
        <ele>231.76</ele>
        <time>2017-09-06T07:55:32Z</time>
      </trkpt>
      <trkpt lat="47.65761" lon="6.15022">
        <ele>231.73</ele>
        <time>2017-09-06T07:55:38Z</time>
      </trkpt>
      <trkpt lat="47.65782" lon="6.1502">
        <ele>231.7</ele>
        <time>2017-09-06T07:55:44Z</time>
      </trkpt>
      <trkpt lat="47.65802" lon="6.15019">
        <ele>231.66</ele>
        <time>2017-09-06T07:55:50Z</time>
      </trkpt>
      <trkpt lat="47.65822" lon="6.15019">
        <ele>231.51</ele>
        <time>2017-09-06T07:55:55Z</time>
      </trkpt>
      <trkpt lat="47.65844" lon="6.15017">
        <ele>231.43</ele>
        <time>2017-09-06T07:56:00Z</time>
      </trkpt>
      <trkpt lat="47.65865" lon="6.15017">
        <ele>231.37</ele>
        <time>2017-09-06T07:56:04Z</time>
      </trkpt>
      <trkpt lat="47.65889" lon="6.15018">
        <ele>231.31</ele>
        <time>2017-09-06T07:56:08Z</time>
      </trkpt>
      <trkpt lat="47.65909" lon="6.1502">
        <ele>231.25</ele>
        <time>2017-09-06T07:56:11Z</time>
      </trkpt>
      <trkpt lat="47.65932" lon="6.15021">
        <ele>231.18</ele>
        <time>2017-09-06T07:56:14Z</time>
      </trkpt>
      <trkpt lat="47.65955" lon="6.15022">
        <ele>231.05</ele>
        <time>2017-09-06T07:56:17Z</time>
      </trkpt>
      <trkpt lat="47.65976" lon="6.15024">
        <ele>230.96</ele>
        <time>2017-09-06T07:56:20Z</time>
      </trkpt>
      <trkpt lat="47.65997" lon="6.15026">
        <ele>230.9</ele>
        <time>2017-09-06T07:56:23Z</time>
      </trkpt>
      <trkpt lat="47.66016" lon="6.15027">
        <ele>230.85</ele>
        <time>2017-09-06T07:56:26Z</time>
      </trkpt>
      <trkpt lat="47.66038" lon="6.15027">
        <ele>230.7</ele>
        <time>2017-09-06T07:56:30Z</time>
      </trkpt>
      <trkpt lat="47.66057" lon="6.15027">
        <ele>230.39</ele>
        <time>2017-09-06T07:56:34Z</time>
      </trkpt>
      <trkpt lat="47.66077" lon="6.15027">
        <ele>230.21</ele>
        <time>2017-09-06T07:56:39Z</time>
      </trkpt>
      <trkpt lat="47.66096" lon="6.15027">
        <ele>230.42</ele>
        <time>2017-09-06T07:56:45Z</time>
      </trkpt>
      <trkpt lat="47.66116" lon="6.15026">
        <ele>230.53</ele>
        <time>2017-09-06T07:56:52Z</time>
      </trkpt>
      <trkpt lat="47.66136" lon="6.15026">
        <ele>230.68</ele>
        <time>2017-09-06T07:56:59Z</time>
      </trkpt>
      <trkpt lat="47.66156" lon="6.15025">
        <ele>230.79</ele>
        <time>2017-09-06T07:57:07Z</time>
      </trkpt>
      <trkpt lat="47.66174" lon="6.15026">
        <ele>230.91</ele>
        <time>2017-09-06T07:57:15Z</time>
      </trkpt>
      <trkpt lat="47.66193" lon="6.15028">
        <ele>231.12</ele>
        <time>2017-09-06T07:57:23Z</time>
      </trkpt>
      <trkpt lat="47.66212" lon="6.1503">
        <ele>231.38</ele>
        <time>2017-09-06T07:57:31Z</time>
      </trkpt>
      <trkpt lat="47.66232" lon="6.15035">
        <ele>231.7</ele>
        <time>2017-09-06T07:57:39Z</time>
      </trkpt>
      <trkpt lat="47.66252" lon="6.15036">
        <ele>232.07</ele>
        <time>2017-09-06T07:57:47Z</time>
      </trkpt>
      <trkpt lat="47.66271" lon="6.15039">
        <ele>232.44</ele>
        <time>2017-09-06T07:57:55Z</time>
      </trkpt>
      <trkpt lat="47.6629" lon="6.15042">
        <ele>232.79</ele>
        <time>2017-09-06T07:58:03Z</time>
      </trkpt>
      <trkpt lat="47.6631" lon="6.15046">
        <ele>233.16</ele>
        <time>2017-09-06T07:58:11Z</time>
      </trkpt>
      <trkpt lat="47.66329" lon="6.1505">
        <ele>233.52</ele>
        <time>2017-09-06T07:58:18Z</time>
      </trkpt>
      <trkpt lat="47.66347" lon="6.15052">
        <ele>233.84</ele>
        <time>2017-09-06T07:58:24Z</time>
      </trkpt>
      <trkpt lat="47.66367" lon="6.15052">
        <ele>234.14</ele>
        <time>2017-09-06T07:58:30Z</time>
      </trkpt>
      <trkpt lat="47.66386" lon="6.1505">
        <ele>234.67</ele>
        <time>2017-09-06T07:58:35Z</time>
      </trkpt>
      <trkpt lat="47.66404" lon="6.15046">
        <ele>235.3</ele>
        <time>2017-09-06T07:58:40Z</time>
      </trkpt>
      <trkpt lat="47.66424" lon="6.15042">
        <ele>235.5</ele>
        <time>2017-09-06T07:58:46Z</time>
      </trkpt>
      <trkpt lat="47.66446" lon="6.15037">
        <ele>236.56</ele>
        <time>2017-09-06T07:58:52Z</time>
      </trkpt>
      <trkpt lat="47.66467" lon="6.15035">
        <ele>237.23</ele>
        <time>2017-09-06T07:58:57Z</time>
      </trkpt>
      <trkpt lat="47.66484" lon="6.15041">
        <ele>237.58</ele>
        <time>2017-09-06T07:59:01Z</time>
      </trkpt>
      <trkpt lat="47.66504" lon="6.15051">
        <ele>237.91</ele>
        <time>2017-09-06T07:59:06Z</time>
      </trkpt>
      <trkpt lat="47.66524" lon="6.1505">
        <ele>238.13</ele>
        <time>2017-09-06T07:59:11Z</time>
      </trkpt>
      <trkpt lat="47.66546" lon="6.15045">
        <ele>238.17</ele>
        <time>2017-09-06T07:59:17Z</time>
      </trkpt>
      <trkpt lat="47.66565" lon="6.15046">
        <ele>238.21</ele>
        <time>2017-09-06T07:59:23Z</time>
      </trkpt>
      <trkpt lat="47.66585" lon="6.15052">
        <ele>238.31</ele>
        <time>2017-09-06T07:59:30Z</time>
      </trkpt>
      <trkpt lat="47.66604" lon="6.15057">
        <ele>238.45</ele>
        <time>2017-09-06T07:59:37Z</time>
      </trkpt>
      <trkpt lat="47.66622" lon="6.15055">
        <ele>238.61</ele>
        <time>2017-09-06T07:59:44Z</time>
      </trkpt>
      <trkpt lat="47.66641" lon="6.1505">
        <ele>238.84</ele>
        <time>2017-09-06T07:59:52Z</time>
      </trkpt>
      <trkpt lat="47.6666" lon="6.15046">
        <ele>239.12</ele>
        <time>2017-09-06T08:00:00Z</time>
      </trkpt>
      <trkpt lat="47.66678" lon="6.15038">
        <ele>239.56</ele>
        <time>2017-09-06T08:00:11Z</time>
      </trkpt>
      <trkpt lat="47.66695" lon="6.15024">
        <ele>239.94</ele>
        <time>2017-09-06T08:00:20Z</time>
      </trkpt>
      <trkpt lat="47.66712" lon="6.15011">
        <ele>240.38</ele>
        <time>2017-09-06T08:00:30Z</time>
      </trkpt>
      <trkpt lat="47.66728" lon="6.14996">
        <ele>240.77</ele>
        <time>2017-09-06T08:00:39Z</time>
      </trkpt>
      <trkpt lat="47.6674" lon="6.14976">
        <ele>241.12</ele>
        <time>2017-09-06T08:00:47Z</time>
      </trkpt>
      <trkpt lat="47.6675" lon="6.14952">
        <ele>241.54</ele>
        <time>2017-09-06T08:00:57Z</time>
      </trkpt>
      <trkpt lat="47.66764" lon="6.1493">
        <ele>242.03</ele>
        <time>2017-09-06T08:01:07Z</time>
      </trkpt>
      <trkpt lat="47.66776" lon="6.1491">
        <ele>242.47</ele>
        <time>2017-09-06T08:01:16Z</time>
      </trkpt>
      <trkpt lat="47.66794" lon="6.1491">
        <ele>243.03</ele>
        <time>2017-09-06T08:01:27Z</time>
      </trkpt>
      <trkpt lat="47.66811" lon="6.14921">
        <ele>244.01</ele>
        <time>2017-09-06T08:02:14Z</time>
      </trkpt>
      <trkpt lat="47.66824" lon="6.14941">
        <ele>244.34</ele>
        <time>2017-09-06T08:02:20Z</time>
      </trkpt>
      <trkpt lat="47.6684" lon="6.14961">
        <ele>244.73</ele>
        <time>2017-09-06T08:02:27Z</time>
      </trkpt>
      <trkpt lat="47.66854" lon="6.14983">
        <ele>245.13</ele>
        <time>2017-09-06T08:02:34Z</time>
      </trkpt>
      <trkpt lat="47.66868" lon="6.15007">
        <ele>245.51</ele>
        <time>2017-09-06T08:02:41Z</time>
      </trkpt>
      <trkpt lat="47.66881" lon="6.15025">
        <ele>245.84</ele>
        <time>2017-09-06T08:02:47Z</time>
      </trkpt>
      <trkpt lat="47.66895" lon="6.15044">
        <ele>246.16</ele>
        <time>2017-09-06T08:02:53Z</time>
      </trkpt>
      <trkpt lat="47.66907" lon="6.15065">
        <ele>246.55</ele>
        <time>2017-09-06T08:03:00Z</time>
      </trkpt>
      <trkpt lat="47.66915" lon="6.1509">
        <ele>246.93</ele>
        <time>2017-09-06T08:03:07Z</time>
      </trkpt>
      <trkpt lat="47.66928" lon="6.15112">
        <ele>247.36</ele>
        <time>2017-09-06T08:03:15Z</time>
      </trkpt>
      <trkpt lat="47.66944" lon="6.15128">
        <ele>247.8</ele>
        <time>2017-09-06T08:03:23Z</time>
      </trkpt>
      <trkpt lat="47.6696" lon="6.15142">
        <ele>248.23</ele>
        <time>2017-09-06T08:03:30Z</time>
      </trkpt>
      <trkpt lat="47.6698" lon="6.15152">
        <ele>248.67</ele>
        <time>2017-09-06T08:03:37Z</time>
      </trkpt>
      <trkpt lat="47.67" lon="6.15159">
        <ele>250.44</ele>
        <time>2017-09-06T08:03:42Z</time>
      </trkpt>
      <trkpt lat="47.6702" lon="6.15162">
        <ele>251.37</ele>
        <time>2017-09-06T08:03:46Z</time>
      </trkpt>
      <trkpt lat="47.67039" lon="6.15157">
        <ele>251.92</ele>
        <time>2017-09-06T08:03:50Z</time>
      </trkpt>
      <trkpt lat="47.67058" lon="6.15152">
        <ele>252.2</ele>
        <time>2017-09-06T08:03:55Z</time>
      </trkpt>
      <trkpt lat="47.67077" lon="6.15144">
        <ele>252.31</ele>
        <time>2017-09-06T08:04:02Z</time>
      </trkpt>
      <trkpt lat="47.67059" lon="6.15149">
        <ele>252.65</ele>
        <time>2017-09-06T08:04:16Z</time>
      </trkpt>
      <trkpt lat="47.6704" lon="6.15158">
        <ele>252.84</ele>
        <time>2017-09-06T08:04:23Z</time>
      </trkpt>
      <trkpt lat="47.67059" lon="6.15148">
        <ele>253.88</ele>
        <time>2017-09-06T08:05:46Z</time>
      </trkpt>
      <trkpt lat="47.67078" lon="6.15141">
        <ele>254.11</ele>
        <time>2017-09-06T08:05:53Z</time>
      </trkpt>
      <trkpt lat="47.67098" lon="6.15132">
        <ele>254.33</ele>
        <time>2017-09-06T08:06:00Z</time>
      </trkpt>
      <trkpt lat="47.67117" lon="6.15126">
        <ele>254.52</ele>
        <time>2017-09-06T08:06:06Z</time>
      </trkpt>
      <trkpt lat="47.67136" lon="6.15119">
        <ele>254.7</ele>
        <time>2017-09-06T08:06:12Z</time>
      </trkpt>
      <trkpt lat="47.67155" lon="6.15111">
        <ele>255.18</ele>
        <time>2017-09-06T08:06:18Z</time>
      </trkpt>
      <trkpt lat="47.67172" lon="6.15097">
        <ele>255.36</ele>
        <time>2017-09-06T08:06:24Z</time>
      </trkpt>
      <trkpt lat="47.67189" lon="6.15085">
        <ele>255.76</ele>
        <time>2017-09-06T08:06:29Z</time>
      </trkpt>
      <trkpt lat="47.67206" lon="6.15072">
        <ele>256.62</ele>
        <time>2017-09-06T08:06:34Z</time>
      </trkpt>
      <trkpt lat="47.67225" lon="6.15055">
        <ele>256.96</ele>
        <time>2017-09-06T08:06:39Z</time>
      </trkpt>
      <trkpt lat="47.67242" lon="6.1504">
        <ele>257.05</ele>
        <time>2017-09-06T08:06:43Z</time>
      </trkpt>
      <trkpt lat="47.6726" lon="6.15024">
        <ele>257.05</ele>
        <time>2017-09-06T08:06:47Z</time>
      </trkpt>
      <trkpt lat="47.67278" lon="6.15008">
        <ele>257.02</ele>
        <time>2017-09-06T08:06:51Z</time>
      </trkpt>
      <trkpt lat="47.67296" lon="6.14993">
        <ele>256.99</ele>
        <time>2017-09-06T08:06:55Z</time>
      </trkpt>
      <trkpt lat="47.67312" lon="6.14977">
        <ele>256.98</ele>
        <time>2017-09-06T08:06:59Z</time>
      </trkpt>
      <trkpt lat="47.6733" lon="6.14963">
        <ele>257</ele>
        <time>2017-09-06T08:07:04Z</time>
      </trkpt>
      <trkpt lat="47.67346" lon="6.14948">
        <ele>257.06</ele>
        <time>2017-09-06T08:07:09Z</time>
      </trkpt>
      <trkpt lat="47.67364" lon="6.14932">
        <ele>257.23</ele>
        <time>2017-09-06T08:07:14Z</time>
      </trkpt>
      <trkpt lat="47.6738" lon="6.14915">
        <ele>257.39</ele>
        <time>2017-09-06T08:07:19Z</time>
      </trkpt>
      <trkpt lat="47.67397" lon="6.14899">
        <ele>257.5</ele>
        <time>2017-09-06T08:07:24Z</time>
      </trkpt>
      <trkpt lat="47.67414" lon="6.14883">
        <ele>257.57</ele>
        <time>2017-09-06T08:07:28Z</time>
      </trkpt>
      <trkpt lat="47.67431" lon="6.14869">
        <ele>257.62</ele>
        <time>2017-09-06T08:07:32Z</time>
      </trkpt>
      <trkpt lat="47.67448" lon="6.14854">
        <ele>257.65</ele>
        <time>2017-09-06T08:07:37Z</time>
      </trkpt>
      <trkpt lat="47.67464" lon="6.1484">
        <ele>257.67</ele>
        <time>2017-09-06T08:07:42Z</time>
      </trkpt>
      <trkpt lat="47.6748" lon="6.14825">
        <ele>257.77</ele>
        <time>2017-09-06T08:07:47Z</time>
      </trkpt>
      <trkpt lat="47.67497" lon="6.1481">
        <ele>257.9</ele>
        <time>2017-09-06T08:07:52Z</time>
      </trkpt>
      <trkpt lat="47.67513" lon="6.14796">
        <ele>257.95</ele>
        <time>2017-09-06T08:07:56Z</time>
      </trkpt>
      <trkpt lat="47.67529" lon="6.1478">
        <ele>257.98</ele>
        <time>2017-09-06T08:08:00Z</time>
      </trkpt>
      <trkpt lat="47.67546" lon="6.14765">
        <ele>257.98</ele>
        <time>2017-09-06T08:08:04Z</time>
      </trkpt>
      <trkpt lat="47.67563" lon="6.14749">
        <ele>257.98</ele>
        <time>2017-09-06T08:08:08Z</time>
      </trkpt>
      <trkpt lat="47.67581" lon="6.14734">
        <ele>257.95</ele>
        <time>2017-09-06T08:08:12Z</time>
      </trkpt>
      <trkpt lat="47.67599" lon="6.14718">
        <ele>257.9</ele>
        <time>2017-09-06T08:08:16Z</time>
      </trkpt>
      <trkpt lat="47.67617" lon="6.14703">
        <ele>257.79</ele>
        <time>2017-09-06T08:08:20Z</time>
      </trkpt>
      <trkpt lat="47.67634" lon="6.14689">
        <ele>257.7</ele>
        <time>2017-09-06T08:08:24Z</time>
      </trkpt>
      <trkpt lat="47.67651" lon="6.14679">
        <ele>257.64</ele>
        <time>2017-09-06T08:08:28Z</time>
      </trkpt>
      <trkpt lat="47.67671" lon="6.14666">
        <ele>257.56</ele>
        <time>2017-09-06T08:08:32Z</time>
      </trkpt>
      <trkpt lat="47.67689" lon="6.14656">
        <ele>257.47</ele>
        <time>2017-09-06T08:08:36Z</time>
      </trkpt>
      <trkpt lat="47.67709" lon="6.14644">
        <ele>257.37</ele>
        <time>2017-09-06T08:08:41Z</time>
      </trkpt>
      <trkpt lat="47.67729" lon="6.14632">
        <ele>257.25</ele>
        <time>2017-09-06T08:08:46Z</time>
      </trkpt>
      <trkpt lat="47.6775" lon="6.1462">
        <ele>257.13</ele>
        <time>2017-09-06T08:08:51Z</time>
      </trkpt>
      <trkpt lat="47.67768" lon="6.14608">
        <ele>257.06</ele>
        <time>2017-09-06T08:08:56Z</time>
      </trkpt>
      <trkpt lat="47.67786" lon="6.14598">
        <ele>257.04</ele>
        <time>2017-09-06T08:09:01Z</time>
      </trkpt>
      <trkpt lat="47.67803" lon="6.14586">
        <ele>257.05</ele>
        <time>2017-09-06T08:09:06Z</time>
      </trkpt>
      <trkpt lat="47.6782" lon="6.14576">
        <ele>257.07</ele>
        <time>2017-09-06T08:09:11Z</time>
      </trkpt>
      <trkpt lat="47.67838" lon="6.14565">
        <ele>257.09</ele>
        <time>2017-09-06T08:09:16Z</time>
      </trkpt>
      <trkpt lat="47.67854" lon="6.14554">
        <ele>257.1</ele>
        <time>2017-09-06T08:09:21Z</time>
      </trkpt>
      <trkpt lat="47.67871" lon="6.14543">
        <ele>257.12</ele>
        <time>2017-09-06T08:09:26Z</time>
      </trkpt>
      <trkpt lat="47.67887" lon="6.14528">
        <ele>257.19</ele>
        <time>2017-09-06T08:09:31Z</time>
      </trkpt>
      <trkpt lat="47.67903" lon="6.14512">
        <ele>257.32</ele>
        <time>2017-09-06T08:09:36Z</time>
      </trkpt>
      <trkpt lat="47.6792" lon="6.14492">
        <ele>257.36</ele>
        <time>2017-09-06T08:09:42Z</time>
      </trkpt>
      <trkpt lat="47.67936" lon="6.14472">
        <ele>257.38</ele>
        <time>2017-09-06T08:09:48Z</time>
      </trkpt>
      <trkpt lat="47.67951" lon="6.1445">
        <ele>257.41</ele>
        <time>2017-09-06T08:09:54Z</time>
      </trkpt>
      <trkpt lat="47.67965" lon="6.14432">
        <ele>257.45</ele>
        <time>2017-09-06T08:10:00Z</time>
      </trkpt>
      <trkpt lat="47.67979" lon="6.14412">
        <ele>257.52</ele>
        <time>2017-09-06T08:10:06Z</time>
      </trkpt>
      <trkpt lat="47.67992" lon="6.14391">
        <ele>257.61</ele>
        <time>2017-09-06T08:10:12Z</time>
      </trkpt>
      <trkpt lat="47.68005" lon="6.14373">
        <ele>257.71</ele>
        <time>2017-09-06T08:10:18Z</time>
      </trkpt>
      <trkpt lat="47.68018" lon="6.14353">
        <ele>257.84</ele>
        <time>2017-09-06T08:10:24Z</time>
      </trkpt>
      <trkpt lat="47.68034" lon="6.14334">
        <ele>258.01</ele>
        <time>2017-09-06T08:10:31Z</time>
      </trkpt>
      <trkpt lat="47.68049" lon="6.14316">
        <ele>258.22</ele>
        <time>2017-09-06T08:10:38Z</time>
      </trkpt>
      <trkpt lat="47.68065" lon="6.14298">
        <ele>258.43</ele>
        <time>2017-09-06T08:10:45Z</time>
      </trkpt>
      <trkpt lat="47.6808" lon="6.1428">
        <ele>258.64</ele>
        <time>2017-09-06T08:10:52Z</time>
      </trkpt>
      <trkpt lat="47.68095" lon="6.14262">
        <ele>258.86</ele>
        <time>2017-09-06T08:10:59Z</time>
      </trkpt>
      <trkpt lat="47.68109" lon="6.14243">
        <ele>259.08</ele>
        <time>2017-09-06T08:11:06Z</time>
      </trkpt>
      <trkpt lat="47.68123" lon="6.14224">
        <ele>259.35</ele>
        <time>2017-09-06T08:11:14Z</time>
      </trkpt>
      <trkpt lat="47.6814" lon="6.14239">
        <ele>259.62</ele>
        <time>2017-09-06T08:11:22Z</time>
      </trkpt>
      <trkpt lat="47.68151" lon="6.14262">
        <ele>259.89</ele>
        <time>2017-09-06T08:11:29Z</time>
      </trkpt>
      <trkpt lat="47.68162" lon="6.14288">
        <ele>260.13</ele>
        <time>2017-09-06T08:11:35Z</time>
      </trkpt>
      <trkpt lat="47.68173" lon="6.14311">
        <ele>261.15</ele>
        <time>2017-09-06T08:11:40Z</time>
      </trkpt>
      <trkpt lat="47.68184" lon="6.14334">
        <ele>261.46</ele>
        <time>2017-09-06T08:11:45Z</time>
      </trkpt>
      <trkpt lat="47.68196" lon="6.14359">
        <ele>262.22</ele>
        <time>2017-09-06T08:11:50Z</time>
      </trkpt>
      <trkpt lat="47.68208" lon="6.14385">
        <ele>262.62</ele>
        <time>2017-09-06T08:11:55Z</time>
      </trkpt>
      <trkpt lat="47.68221" lon="6.1441">
        <ele>262.87</ele>
        <time>2017-09-06T08:12:00Z</time>
      </trkpt>
      <trkpt lat="47.68232" lon="6.14435">
        <ele>263.05</ele>
        <time>2017-09-06T08:12:05Z</time>
      </trkpt>
      <trkpt lat="47.68244" lon="6.14461">
        <ele>263.21</ele>
        <time>2017-09-06T08:12:10Z</time>
      </trkpt>
      <trkpt lat="47.68255" lon="6.14483">
        <ele>263.32</ele>
        <time>2017-09-06T08:12:14Z</time>
      </trkpt>
      <trkpt lat="47.68268" lon="6.14509">
        <ele>263.46</ele>
        <time>2017-09-06T08:12:19Z</time>
      </trkpt>
      <trkpt lat="47.6828" lon="6.14534">
        <ele>263.58</ele>
        <time>2017-09-06T08:12:24Z</time>
      </trkpt>
      <trkpt lat="47.68292" lon="6.1456">
        <ele>263.66</ele>
        <time>2017-09-06T08:12:29Z</time>
      </trkpt>
      <trkpt lat="47.68304" lon="6.14586">
        <ele>263.7</ele>
        <time>2017-09-06T08:12:34Z</time>
      </trkpt>
      <trkpt lat="47.68315" lon="6.14609">
        <ele>263.71</ele>
        <time>2017-09-06T08:12:38Z</time>
      </trkpt>
      <trkpt lat="47.68325" lon="6.14632">
        <ele>263.71</ele>
        <time>2017-09-06T08:12:42Z</time>
      </trkpt>
      <trkpt lat="47.68336" lon="6.14655">
        <ele>263.7</ele>
        <time>2017-09-06T08:12:46Z</time>
      </trkpt>
      <trkpt lat="47.68346" lon="6.14682">
        <ele>263.68</ele>
        <time>2017-09-06T08:12:50Z</time>
      </trkpt>
      <trkpt lat="47.68356" lon="6.1471">
        <ele>263.67</ele>
        <time>2017-09-06T08:12:54Z</time>
      </trkpt>
      <trkpt lat="47.68363" lon="6.14739">
        <ele>263.64</ele>
        <time>2017-09-06T08:12:58Z</time>
      </trkpt>
      <trkpt lat="47.68367" lon="6.14766">
        <ele>263.61</ele>
        <time>2017-09-06T08:13:02Z</time>
      </trkpt>
      <trkpt lat="47.68367" lon="6.14797">
        <ele>263.54</ele>
        <time>2017-09-06T08:13:07Z</time>
      </trkpt>
      <trkpt lat="47.68367" lon="6.1483">
        <ele>263.49</ele>
        <time>2017-09-06T08:13:12Z</time>
      </trkpt>
      <trkpt lat="47.68367" lon="6.14857">
        <ele>263.48</ele>
        <time>2017-09-06T08:13:15Z</time>
      </trkpt>
      <trkpt lat="47.68367" lon="6.14885">
        <ele>263.45</ele>
        <time>2017-09-06T08:13:18Z</time>
      </trkpt>
      <trkpt lat="47.68367" lon="6.14912">
        <ele>263.41</ele>
        <time>2017-09-06T08:13:21Z</time>
      </trkpt>
      <trkpt lat="47.68367" lon="6.14945">
        <ele>263.35</ele>
        <time>2017-09-06T08:13:25Z</time>
      </trkpt>
      <trkpt lat="47.68366" lon="6.14974">
        <ele>263.23</ele>
        <time>2017-09-06T08:13:29Z</time>
      </trkpt>
      <trkpt lat="47.68366" lon="6.15005">
        <ele>263.14</ele>
        <time>2017-09-06T08:13:33Z</time>
      </trkpt>
      <trkpt lat="47.68366" lon="6.15037">
        <ele>263.03</ele>
        <time>2017-09-06T08:13:37Z</time>
      </trkpt>
      <trkpt lat="47.68366" lon="6.15067">
        <ele>262.94</ele>
        <time>2017-09-06T08:13:41Z</time>
      </trkpt>
      <trkpt lat="47.68366" lon="6.15096">
        <ele>262.88</ele>
        <time>2017-09-06T08:13:45Z</time>
      </trkpt>
      <trkpt lat="47.68365" lon="6.15123">
        <ele>262.93</ele>
        <time>2017-09-06T08:13:49Z</time>
      </trkpt>
      <trkpt lat="47.68365" lon="6.15153">
        <ele>262.84</ele>
        <time>2017-09-06T08:13:54Z</time>
      </trkpt>
      <trkpt lat="47.68355" lon="6.15178">
        <ele>262.75</ele>
        <time>2017-09-06T08:13:59Z</time>
      </trkpt>
      <trkpt lat="47.68337" lon="6.1519">
        <ele>262.79</ele>
        <time>2017-09-06T08:14:20Z</time>
      </trkpt>
      <trkpt lat="47.68319" lon="6.15199">
        <ele>262.85</ele>
        <time>2017-09-06T08:14:25Z</time>
      </trkpt>
      <trkpt lat="47.68298" lon="6.15212">
        <ele>262.65</ele>
        <time>2017-09-06T08:14:29Z</time>
      </trkpt>
      <trkpt lat="47.68279" lon="6.15223">
        <ele>262.32</ele>
        <time>2017-09-06T08:14:32Z</time>
      </trkpt>
      <trkpt lat="47.6826" lon="6.15233">
        <ele>261.79</ele>
        <time>2017-09-06T08:14:35Z</time>
      </trkpt>
      <trkpt lat="47.68241" lon="6.15244">
        <ele>261.19</ele>
        <time>2017-09-06T08:14:38Z</time>
      </trkpt>
      <trkpt lat="47.68221" lon="6.1526">
        <ele>260.47</ele>
        <time>2017-09-06T08:14:42Z</time>
      </trkpt>
      <trkpt lat="47.68212" lon="6.15285">
        <ele>260.04</ele>
        <time>2017-09-06T08:14:45Z</time>
      </trkpt>
      <trkpt lat="47.68207" lon="6.15314">
        <ele>259.73</ele>
        <time>2017-09-06T08:14:48Z</time>
      </trkpt>
      <trkpt lat="47.68201" lon="6.15345">
        <ele>259.32</ele>
        <time>2017-09-06T08:14:51Z</time>
      </trkpt>
      <trkpt lat="47.68194" lon="6.1538">
        <ele>258.73</ele>
        <time>2017-09-06T08:14:54Z</time>
      </trkpt>
      <trkpt lat="47.68189" lon="6.15406">
        <ele>258.29</ele>
        <time>2017-09-06T08:14:56Z</time>
      </trkpt>
      <trkpt lat="47.68186" lon="6.15434">
        <ele>257.82</ele>
        <time>2017-09-06T08:14:58Z</time>
      </trkpt>
      <trkpt lat="47.68183" lon="6.15465">
        <ele>257.4</ele>
        <time>2017-09-06T08:15:00Z</time>
      </trkpt>
      <trkpt lat="47.68182" lon="6.15498">
        <ele>256.99</ele>
        <time>2017-09-06T08:15:02Z</time>
      </trkpt>
      <trkpt lat="47.68182" lon="6.15533">
        <ele>256.46</ele>
        <time>2017-09-06T08:15:04Z</time>
      </trkpt>
      <trkpt lat="47.68182" lon="6.1557">
        <ele>256.06</ele>
        <time>2017-09-06T08:15:06Z</time>
      </trkpt>
      <trkpt lat="47.68181" lon="6.15607">
        <ele>255.89</ele>
        <time>2017-09-06T08:15:08Z</time>
      </trkpt>
      <trkpt lat="47.6818" lon="6.15643">
        <ele>255.94</ele>
        <time>2017-09-06T08:15:10Z</time>
      </trkpt>
      <trkpt lat="47.68179" lon="6.15676">
        <ele>256</ele>
        <time>2017-09-06T08:15:12Z</time>
      </trkpt>
      <trkpt lat="47.68178" lon="6.15707">
        <ele>256.16</ele>
        <time>2017-09-06T08:15:14Z</time>
      </trkpt>
      <trkpt lat="47.68178" lon="6.15736">
        <ele>256.26</ele>
        <time>2017-09-06T08:15:16Z</time>
      </trkpt>
      <trkpt lat="47.68179" lon="6.15763">
        <ele>256.26</ele>
        <time>2017-09-06T08:15:18Z</time>
      </trkpt>
      <trkpt lat="47.6818" lon="6.15799">
        <ele>256.14</ele>
        <time>2017-09-06T08:15:21Z</time>
      </trkpt>
      <trkpt lat="47.68183" lon="6.15829">
        <ele>255.89</ele>
        <time>2017-09-06T08:15:24Z</time>
      </trkpt>
      <trkpt lat="47.6819" lon="6.15855">
        <ele>255.5</ele>
        <time>2017-09-06T08:15:27Z</time>
      </trkpt>
      <trkpt lat="47.68198" lon="6.15879">
        <ele>255.06</ele>
        <time>2017-09-06T08:15:30Z</time>
      </trkpt>
      <trkpt lat="47.68206" lon="6.15911">
        <ele>254.45</ele>
        <time>2017-09-06T08:15:34Z</time>
      </trkpt>
      <trkpt lat="47.68213" lon="6.1594">
        <ele>253.87</ele>
        <time>2017-09-06T08:15:38Z</time>
      </trkpt>
      <trkpt lat="47.68219" lon="6.1597">
        <ele>253.34</ele>
        <time>2017-09-06T08:15:42Z</time>
      </trkpt>
      <trkpt lat="47.68223" lon="6.15996">
        <ele>252.79</ele>
        <time>2017-09-06T08:15:45Z</time>
      </trkpt>
      <trkpt lat="47.68227" lon="6.16024">
        <ele>252.2</ele>
        <time>2017-09-06T08:15:48Z</time>
      </trkpt>
      <trkpt lat="47.68231" lon="6.16051">
        <ele>251.65</ele>
        <time>2017-09-06T08:15:51Z</time>
      </trkpt>
      <trkpt lat="47.6823" lon="6.16078">
        <ele>251.08</ele>
        <time>2017-09-06T08:15:54Z</time>
      </trkpt>
      <trkpt lat="47.68225" lon="6.1611">
        <ele>250.12</ele>
        <time>2017-09-06T08:15:58Z</time>
      </trkpt>
      <trkpt lat="47.68221" lon="6.16138">
        <ele>249.62</ele>
        <time>2017-09-06T08:16:03Z</time>
      </trkpt>
      <trkpt lat="47.68216" lon="6.16169">
        <ele>249.5</ele>
        <time>2017-09-06T08:16:09Z</time>
      </trkpt>
      <trkpt lat="47.68212" lon="6.16196">
        <ele>249.31</ele>
        <time>2017-09-06T08:16:14Z</time>
      </trkpt>
      <trkpt lat="47.68207" lon="6.16222">
        <ele>248.84</ele>
        <time>2017-09-06T08:16:19Z</time>
      </trkpt>
      <trkpt lat="47.68192" lon="6.16243">
        <ele>248.05</ele>
        <time>2017-09-06T08:16:25Z</time>
      </trkpt>
      <trkpt lat="47.68203" lon="6.16265">
        <ele>246.62</ele>
        <time>2017-09-06T08:16:35Z</time>
      </trkpt>
      <trkpt lat="47.68221" lon="6.16281">
        <ele>245.04</ele>
        <time>2017-09-06T08:16:50Z</time>
      </trkpt>
      <trkpt lat="47.68239" lon="6.16294">
        <ele>244.07</ele>
        <time>2017-09-06T08:16:56Z</time>
      </trkpt>
      <trkpt lat="47.68256" lon="6.16308">
        <ele>243.13</ele>
        <time>2017-09-06T08:17:02Z</time>
      </trkpt>
      <trkpt lat="47.68273" lon="6.16321">
        <ele>240.28</ele>
        <time>2017-09-06T08:17:07Z</time>
      </trkpt>
      <trkpt lat="47.68291" lon="6.16334">
        <ele>239.16</ele>
        <time>2017-09-06T08:17:13Z</time>
      </trkpt>
      <trkpt lat="47.6831" lon="6.16328">
        <ele>238.32</ele>
        <time>2017-09-06T08:17:21Z</time>
      </trkpt>
      <trkpt lat="47.68329" lon="6.16339">
        <ele>237.58</ele>
        <time>2017-09-06T08:17:29Z</time>
      </trkpt>
      <trkpt lat="47.68346" lon="6.16353">
        <ele>237.02</ele>
        <time>2017-09-06T08:17:36Z</time>
      </trkpt>
      <trkpt lat="47.68365" lon="6.16356">
        <ele>236.46</ele>
        <time>2017-09-06T08:17:45Z</time>
      </trkpt>
      <trkpt lat="47.68384" lon="6.16362">
        <ele>236.11</ele>
        <time>2017-09-06T08:17:53Z</time>
      </trkpt>
      <trkpt lat="47.684" lon="6.16375">
        <ele>235.93</ele>
        <time>2017-09-06T08:17:59Z</time>
      </trkpt>
      <trkpt lat="47.68416" lon="6.16387">
        <ele>235.78</ele>
        <time>2017-09-06T08:18:05Z</time>
      </trkpt>
      <trkpt lat="47.68431" lon="6.16402">
        <ele>235.68</ele>
        <time>2017-09-06T08:18:11Z</time>
      </trkpt>
      <trkpt lat="47.68447" lon="6.1642">
        <ele>235.58</ele>
        <time>2017-09-06T08:18:18Z</time>
      </trkpt>
      <trkpt lat="47.68461" lon="6.1644">
        <ele>235.51</ele>
        <time>2017-09-06T08:18:24Z</time>
      </trkpt>
      <trkpt lat="47.68475" lon="6.16462">
        <ele>235.47</ele>
        <time>2017-09-06T08:18:30Z</time>
      </trkpt>
      <trkpt lat="47.68489" lon="6.16483">
        <ele>235.37</ele>
        <time>2017-09-06T08:18:35Z</time>
      </trkpt>
      <trkpt lat="47.68507" lon="6.16495">
        <ele>235.38</ele>
        <time>2017-09-06T08:18:40Z</time>
      </trkpt>
      <trkpt lat="47.68526" lon="6.16499">
        <ele>235.39</ele>
        <time>2017-09-06T08:18:46Z</time>
      </trkpt>
      <trkpt lat="47.68545" lon="6.16501">
        <ele>235.39</ele>
        <time>2017-09-06T08:18:52Z</time>
      </trkpt>
      <trkpt lat="47.68564" lon="6.16503">
        <ele>235.42</ele>
        <time>2017-09-06T08:18:58Z</time>
      </trkpt>
      <trkpt lat="47.68585" lon="6.16505">
        <ele>235.55</ele>
        <time>2017-09-06T08:19:05Z</time>
      </trkpt>
      <trkpt lat="47.68604" lon="6.16503">
        <ele>235.74</ele>
        <time>2017-09-06T08:19:12Z</time>
      </trkpt>
      <trkpt lat="47.68622" lon="6.16497">
        <ele>235.96</ele>
        <time>2017-09-06T08:19:19Z</time>
      </trkpt>
      <trkpt lat="47.6864" lon="6.16485">
        <ele>236.25</ele>
        <time>2017-09-06T08:19:26Z</time>
      </trkpt>
      <trkpt lat="47.68656" lon="6.16471">
        <ele>236.64</ele>
        <time>2017-09-06T08:19:33Z</time>
      </trkpt>
      <trkpt lat="47.68671" lon="6.16456">
        <ele>237.05</ele>
        <time>2017-09-06T08:19:40Z</time>
      </trkpt>
      <trkpt lat="47.68688" lon="6.16444">
        <ele>237.49</ele>
        <time>2017-09-06T08:19:47Z</time>
      </trkpt>
      <trkpt lat="47.68706" lon="6.16438">
        <ele>237.92</ele>
        <time>2017-09-06T08:19:54Z</time>
      </trkpt>
      <trkpt lat="47.68724" lon="6.16443">
        <ele>239.4</ele>
        <time>2017-09-06T08:21:17Z</time>
      </trkpt>
      <trkpt lat="47.68744" lon="6.16452">
        <ele>240.14</ele>
        <time>2017-09-06T08:21:26Z</time>
      </trkpt>
      <trkpt lat="47.68764" lon="6.16461">
        <ele>240.7</ele>
        <time>2017-09-06T08:21:33Z</time>
      </trkpt>
      <trkpt lat="47.68785" lon="6.16468">
        <ele>241.23</ele>
        <time>2017-09-06T08:21:40Z</time>
      </trkpt>
      <trkpt lat="47.68805" lon="6.16472">
        <ele>241.68</ele>
        <time>2017-09-06T08:21:46Z</time>
      </trkpt>
      <trkpt lat="47.68825" lon="6.16467">
        <ele>242.11</ele>
        <time>2017-09-06T08:21:52Z</time>
      </trkpt>
      <trkpt lat="47.68843" lon="6.16456">
        <ele>242.52</ele>
        <time>2017-09-06T08:21:58Z</time>
      </trkpt>
      <trkpt lat="47.68862" lon="6.16443">
        <ele>242.96</ele>
        <time>2017-09-06T08:22:05Z</time>
      </trkpt>
      <trkpt lat="47.68881" lon="6.1643">
        <ele>243.39</ele>
        <time>2017-09-06T08:22:12Z</time>
      </trkpt>
      <trkpt lat="47.689" lon="6.1642">
        <ele>243.85</ele>
        <time>2017-09-06T08:22:20Z</time>
      </trkpt>
      <trkpt lat="47.68917" lon="6.1641">
        <ele>244.23</ele>
        <time>2017-09-06T08:22:27Z</time>
      </trkpt>
      <trkpt lat="47.68934" lon="6.164">
        <ele>244.58</ele>
        <time>2017-09-06T08:22:34Z</time>
      </trkpt>
      <trkpt lat="47.68952" lon="6.16393">
        <ele>244.97</ele>
        <time>2017-09-06T08:22:42Z</time>
      </trkpt>
      <trkpt lat="47.6897" lon="6.16392">
        <ele>245.3</ele>
        <time>2017-09-06T08:22:49Z</time>
      </trkpt>
      <trkpt lat="47.68989" lon="6.16394">
        <ele>245.65</ele>
        <time>2017-09-06T08:22:57Z</time>
      </trkpt>
      <trkpt lat="47.6901" lon="6.16395">
        <ele>246</ele>
        <time>2017-09-06T08:23:05Z</time>
      </trkpt>
      <trkpt lat="47.69028" lon="6.16397">
        <ele>246.31</ele>
        <time>2017-09-06T08:23:12Z</time>
      </trkpt>
      <trkpt lat="47.69047" lon="6.16398">
        <ele>246.56</ele>
        <time>2017-09-06T08:23:18Z</time>
      </trkpt>
      <trkpt lat="47.6907" lon="6.16402">
        <ele>247.86</ele>
        <time>2017-09-06T08:23:23Z</time>
      </trkpt>
      <trkpt lat="47.69088" lon="6.16406">
        <ele>248.24</ele>
        <time>2017-09-06T08:23:26Z</time>
      </trkpt>
      <trkpt lat="47.69109" lon="6.1641">
        <ele>248.44</ele>
        <time>2017-09-06T08:23:29Z</time>
      </trkpt>
      <trkpt lat="47.69134" lon="6.16414">
        <ele>248.52</ele>
        <time>2017-09-06T08:23:32Z</time>
      </trkpt>
      <trkpt lat="47.69159" lon="6.16417">
        <ele>248.51</ele>
        <time>2017-09-06T08:23:35Z</time>
      </trkpt>
      <trkpt lat="47.69183" lon="6.16417">
        <ele>248.47</ele>
        <time>2017-09-06T08:23:38Z</time>
      </trkpt>
      <trkpt lat="47.69205" lon="6.16411">
        <ele>248.61</ele>
        <time>2017-09-06T08:23:41Z</time>
      </trkpt>
      <trkpt lat="47.69223" lon="6.16406">
        <ele>248.79</ele>
        <time>2017-09-06T08:23:44Z</time>
      </trkpt>
      <trkpt lat="47.69245" lon="6.164">
        <ele>248.85</ele>
        <time>2017-09-06T08:23:48Z</time>
      </trkpt>
      <trkpt lat="47.69263" lon="6.16392">
        <ele>248.93</ele>
        <time>2017-09-06T08:23:51Z</time>
      </trkpt>
      <trkpt lat="47.69283" lon="6.16379">
        <ele>248.94</ele>
        <time>2017-09-06T08:23:55Z</time>
      </trkpt>
      <trkpt lat="47.693" lon="6.16366">
        <ele>248.92</ele>
        <time>2017-09-06T08:23:59Z</time>
      </trkpt>
      <trkpt lat="47.69317" lon="6.16353">
        <ele>248.99</ele>
        <time>2017-09-06T08:24:03Z</time>
      </trkpt>
      <trkpt lat="47.69335" lon="6.16337">
        <ele>248.98</ele>
        <time>2017-09-06T08:24:08Z</time>
      </trkpt>
      <trkpt lat="47.69352" lon="6.16323">
        <ele>249.04</ele>
        <time>2017-09-06T08:24:15Z</time>
      </trkpt>
      <trkpt lat="47.69368" lon="6.16308">
        <ele>249.12</ele>
        <time>2017-09-06T08:24:22Z</time>
      </trkpt>
      <trkpt lat="47.69386" lon="6.16297">
        <ele>249.23</ele>
        <time>2017-09-06T08:24:30Z</time>
      </trkpt>
      <trkpt lat="47.69405" lon="6.16295">
        <ele>249.32</ele>
        <time>2017-09-06T08:24:39Z</time>
      </trkpt>
      <trkpt lat="47.69423" lon="6.163">
        <ele>249.58</ele>
        <time>2017-09-06T08:24:50Z</time>
      </trkpt>
      <trkpt lat="47.69442" lon="6.16309">
        <ele>249.92</ele>
        <time>2017-09-06T08:24:59Z</time>
      </trkpt>
      <trkpt lat="47.69462" lon="6.16308">
        <ele>250.18</ele>
        <time>2017-09-06T08:25:05Z</time>
      </trkpt>
      <trkpt lat="47.69478" lon="6.16295">
        <ele>250.35</ele>
        <time>2017-09-06T08:25:10Z</time>
      </trkpt>
      <trkpt lat="47.69493" lon="6.16278">
        <ele>250.51</ele>
        <time>2017-09-06T08:25:15Z</time>
      </trkpt>
      <trkpt lat="47.69509" lon="6.1626">
        <ele>250.74</ele>
        <time>2017-09-06T08:25:21Z</time>
      </trkpt>
      <trkpt lat="47.69526" lon="6.16242">
        <ele>251.05</ele>
        <time>2017-09-06T08:25:28Z</time>
      </trkpt>
      <trkpt lat="47.69542" lon="6.16225">
        <ele>251.39</ele>
        <time>2017-09-06T08:25:35Z</time>
      </trkpt>
      <trkpt lat="47.69558" lon="6.16209">
        <ele>251.78</ele>
        <time>2017-09-06T08:25:42Z</time>
      </trkpt>
      <trkpt lat="47.69573" lon="6.16193">
        <ele>252.19</ele>
        <time>2017-09-06T08:25:49Z</time>
      </trkpt>
      <trkpt lat="47.6959" lon="6.16178">
        <ele>252.69</ele>
        <time>2017-09-06T08:25:57Z</time>
      </trkpt>
      <trkpt lat="47.69607" lon="6.16165">
        <ele>253.2</ele>
        <time>2017-09-06T08:26:05Z</time>
      </trkpt>
      <trkpt lat="47.69624" lon="6.16154">
        <ele>253.73</ele>
        <time>2017-09-06T08:26:13Z</time>
      </trkpt>
      <trkpt lat="47.69641" lon="6.16141">
        <ele>254.11</ele>
        <time>2017-09-06T08:26:19Z</time>
      </trkpt>
      <trkpt lat="47.69659" lon="6.16128">
        <ele>255.83</ele>
        <time>2017-09-06T08:26:24Z</time>
      </trkpt>
      <trkpt lat="47.69679" lon="6.16112">
        <ele>256.8</ele>
        <time>2017-09-06T08:26:29Z</time>
      </trkpt>
      <trkpt lat="47.69694" lon="6.16096">
        <ele>257.1</ele>
        <time>2017-09-06T08:26:33Z</time>
      </trkpt>
      <trkpt lat="47.69712" lon="6.16078">
        <ele>257.27</ele>
        <time>2017-09-06T08:26:38Z</time>
      </trkpt>
      <trkpt lat="47.69726" lon="6.16059">
        <ele>257.31</ele>
        <time>2017-09-06T08:26:43Z</time>
      </trkpt>
      <trkpt lat="47.69743" lon="6.1604">
        <ele>257.33</ele>
        <time>2017-09-06T08:26:49Z</time>
      </trkpt>
      <trkpt lat="47.69764" lon="6.16033">
        <ele>257.38</ele>
        <time>2017-09-06T08:26:55Z</time>
      </trkpt>
      <trkpt lat="47.69781" lon="6.16043">
        <ele>257.4</ele>
        <time>2017-09-06T08:27:00Z</time>
      </trkpt>
      <trkpt lat="47.69799" lon="6.16057">
        <ele>257.39</ele>
        <time>2017-09-06T08:27:06Z</time>
      </trkpt>
      <trkpt lat="47.69816" lon="6.16072">
        <ele>257.37</ele>
        <time>2017-09-06T08:27:11Z</time>
      </trkpt>
      <trkpt lat="47.69834" lon="6.16089">
        <ele>257.34</ele>
        <time>2017-09-06T08:27:17Z</time>
      </trkpt>
      <trkpt lat="47.6985" lon="6.16108">
        <ele>257.31</ele>
        <time>2017-09-06T08:27:23Z</time>
      </trkpt>
      <trkpt lat="47.69864" lon="6.16129">
        <ele>257.31</ele>
        <time>2017-09-06T08:27:28Z</time>
      </trkpt>
      <trkpt lat="47.69876" lon="6.16151">
        <ele>257.34</ele>
        <time>2017-09-06T08:27:34Z</time>
      </trkpt>
      <trkpt lat="47.69887" lon="6.16171">
        <ele>257.39</ele>
        <time>2017-09-06T08:27:40Z</time>
      </trkpt>
      <trkpt lat="47.699" lon="6.16192">
        <ele>257.45</ele>
        <time>2017-09-06T08:27:46Z</time>
      </trkpt>
      <trkpt lat="47.69911" lon="6.16214">
        <ele>257.53</ele>
        <time>2017-09-06T08:27:52Z</time>
      </trkpt>
      <trkpt lat="47.69921" lon="6.16237">
        <ele>257.62</ele>
        <time>2017-09-06T08:27:58Z</time>
      </trkpt>
      <trkpt lat="47.69931" lon="6.16262">
        <ele>257.73</ele>
        <time>2017-09-06T08:28:04Z</time>
      </trkpt>
      <trkpt lat="47.69941" lon="6.16287">
        <ele>257.85</ele>
        <time>2017-09-06T08:28:10Z</time>
      </trkpt>
      <trkpt lat="47.69956" lon="6.16306">
        <ele>257.99</ele>
        <time>2017-09-06T08:28:16Z</time>
      </trkpt>
      <trkpt lat="47.69975" lon="6.16306">
        <ele>258.16</ele>
        <time>2017-09-06T08:28:22Z</time>
      </trkpt>
      <trkpt lat="47.69995" lon="6.16304">
        <ele>258.35</ele>
        <time>2017-09-06T08:28:28Z</time>
      </trkpt>
      <trkpt lat="47.70015" lon="6.16303">
        <ele>258.61</ele>
        <time>2017-09-06T08:28:35Z</time>
      </trkpt>
      <trkpt lat="47.70034" lon="6.16301">
        <ele>258.84</ele>
        <time>2017-09-06T08:28:41Z</time>
      </trkpt>
      <trkpt lat="47.70052" lon="6.16297">
        <ele>259.09</ele>
        <time>2017-09-06T08:28:47Z</time>
      </trkpt>
      <trkpt lat="47.70072" lon="6.16292">
        <ele>259.41</ele>
        <time>2017-09-06T08:28:54Z</time>
      </trkpt>
      <trkpt lat="47.7009" lon="6.1629">
        <ele>259.7</ele>
        <time>2017-09-06T08:29:00Z</time>
      </trkpt>
      <trkpt lat="47.7011" lon="6.16289">
        <ele>260.06</ele>
        <time>2017-09-06T08:29:07Z</time>
      </trkpt>
      <trkpt lat="47.7013" lon="6.16287">
        <ele>260.43</ele>
        <time>2017-09-06T08:29:14Z</time>
      </trkpt>
      <trkpt lat="47.70149" lon="6.16284">
        <ele>260.8</ele>
        <time>2017-09-06T08:29:21Z</time>
      </trkpt>
      <trkpt lat="47.70169" lon="6.16283">
        <ele>261.19</ele>
        <time>2017-09-06T08:29:28Z</time>
      </trkpt>
      <trkpt lat="47.70188" lon="6.16281">
        <ele>261.54</ele>
        <time>2017-09-06T08:29:34Z</time>
      </trkpt>
      <trkpt lat="47.70207" lon="6.16279">
        <ele>261.91</ele>
        <time>2017-09-06T08:29:40Z</time>
      </trkpt>
      <trkpt lat="47.70226" lon="6.16275">
        <ele>262.36</ele>
        <time>2017-09-06T08:29:47Z</time>
      </trkpt>
      <trkpt lat="47.70246" lon="6.16272">
        <ele>262.8</ele>
        <time>2017-09-06T08:29:54Z</time>
      </trkpt>
      <trkpt lat="47.70267" lon="6.16268">
        <ele>263.32</ele>
        <time>2017-09-06T08:30:02Z</time>
      </trkpt>
      <trkpt lat="47.70285" lon="6.16262">
        <ele>263.77</ele>
        <time>2017-09-06T08:30:09Z</time>
      </trkpt>
      <trkpt lat="47.70305" lon="6.1626">
        <ele>264.2</ele>
        <time>2017-09-06T08:30:16Z</time>
      </trkpt>
      <trkpt lat="47.70325" lon="6.16258">
        <ele>264.59</ele>
        <time>2017-09-06T08:30:23Z</time>
      </trkpt>
      <trkpt lat="47.70343" lon="6.16254">
        <ele>264.97</ele>
        <time>2017-09-06T08:30:30Z</time>
      </trkpt>
      <trkpt lat="47.70362" lon="6.16255">
        <ele>265.29</ele>
        <time>2017-09-06T08:30:36Z</time>
      </trkpt>
      <trkpt lat="47.7038" lon="6.16249">
        <ele>265.72</ele>
        <time>2017-09-06T08:30:44Z</time>
      </trkpt>
      <trkpt lat="47.704" lon="6.16245">
        <ele>266.06</ele>
        <time>2017-09-06T08:30:51Z</time>
      </trkpt>
      <trkpt lat="47.70419" lon="6.16239">
        <ele>266.33</ele>
        <time>2017-09-06T08:30:57Z</time>
      </trkpt>
      <trkpt lat="47.70439" lon="6.16237">
        <ele>266.55</ele>
        <time>2017-09-06T08:31:02Z</time>
      </trkpt>
      <trkpt lat="47.70457" lon="6.16235">
        <ele>266.83</ele>
        <time>2017-09-06T08:31:08Z</time>
      </trkpt>
      <trkpt lat="47.70476" lon="6.16232">
        <ele>267.2</ele>
        <time>2017-09-06T08:31:15Z</time>
      </trkpt>
      <trkpt lat="47.70496" lon="6.16232">
        <ele>267.89</ele>
        <time>2017-09-06T08:31:26Z</time>
      </trkpt>
      <trkpt lat="47.70516" lon="6.1623">
        <ele>268.33</ele>
        <time>2017-09-06T08:31:33Z</time>
      </trkpt>
      <trkpt lat="47.70535" lon="6.16226">
        <ele>268.6</ele>
        <time>2017-09-06T08:31:37Z</time>
      </trkpt>
      <trkpt lat="47.70555" lon="6.1622">
        <ele>269.02</ele>
        <time>2017-09-06T08:31:43Z</time>
      </trkpt>
      <trkpt lat="47.70574" lon="6.16217">
        <ele>269.62</ele>
        <time>2017-09-06T08:31:51Z</time>
      </trkpt>
      <trkpt lat="47.70594" lon="6.16216">
        <ele>270.36</ele>
        <time>2017-09-06T08:32:00Z</time>
      </trkpt>
      <trkpt lat="47.70611" lon="6.1621">
        <ele>271</ele>
        <time>2017-09-06T08:32:07Z</time>
      </trkpt>
      <trkpt lat="47.70629" lon="6.16217">
        <ele>271.84</ele>
        <time>2017-09-06T08:32:15Z</time>
      </trkpt>
      <trkpt lat="47.70631" lon="6.16247">
        <ele>272.73</ele>
        <time>2017-09-06T08:32:24Z</time>
      </trkpt>
      <trkpt lat="47.70629" lon="6.16274">
        <ele>273.87</ele>
        <time>2017-09-06T08:32:36Z</time>
      </trkpt>
      <trkpt lat="47.7063" lon="6.16303">
        <ele>275.2</ele>
        <time>2017-09-06T08:32:49Z</time>
      </trkpt>
      <trkpt lat="47.70627" lon="6.1633">
        <ele>276.13</ele>
        <time>2017-09-06T08:32:58Z</time>
      </trkpt>
      <trkpt lat="47.70626" lon="6.16361">
        <ele>276.85</ele>
        <time>2017-09-06T08:33:06Z</time>
      </trkpt>
      <trkpt lat="47.7063" lon="6.16388">
        <ele>277.43</ele>
        <time>2017-09-06T08:33:14Z</time>
      </trkpt>
      <trkpt lat="47.70635" lon="6.16414">
        <ele>278.33</ele>
        <time>2017-09-06T08:33:27Z</time>
      </trkpt>
      <trkpt lat="47.70635" lon="6.16443">
        <ele>278.86</ele>
        <time>2017-09-06T08:33:36Z</time>
      </trkpt>
      <trkpt lat="47.70639" lon="6.16471">
        <ele>279.42</ele>
        <time>2017-09-06T08:33:47Z</time>
      </trkpt>
      <trkpt lat="47.70642" lon="6.16498">
        <ele>280.05</ele>
        <time>2017-09-06T08:33:58Z</time>
      </trkpt>
      <trkpt lat="47.70641" lon="6.16528">
        <ele>280.49</ele>
        <time>2017-09-06T08:34:06Z</time>
      </trkpt>
      <trkpt lat="47.70641" lon="6.16555">
        <ele>280.96</ele>
        <time>2017-09-06T08:34:14Z</time>
      </trkpt>
      <trkpt lat="47.70643" lon="6.16585">
        <ele>281.38</ele>
        <time>2017-09-06T08:34:21Z</time>
      </trkpt>
      <trkpt lat="47.70646" lon="6.16613">
        <ele>282.3</ele>
        <time>2017-09-06T08:34:35Z</time>
      </trkpt>
      <trkpt lat="47.7065" lon="6.16642">
        <ele>282.71</ele>
        <time>2017-09-06T08:34:41Z</time>
      </trkpt>
      <trkpt lat="47.70654" lon="6.16669">
        <ele>283.11</ele>
        <time>2017-09-06T08:34:48Z</time>
      </trkpt>
      <trkpt lat="47.70662" lon="6.16693">
        <ele>283.39</ele>
        <time>2017-09-06T08:34:55Z</time>
      </trkpt>
      <trkpt lat="47.70666" lon="6.1672">
        <ele>283.76</ele>
        <time>2017-09-06T08:35:04Z</time>
      </trkpt>
      <trkpt lat="47.70671" lon="6.16749">
        <ele>284.43</ele>
        <time>2017-09-06T08:35:24Z</time>
      </trkpt>
      <trkpt lat="47.70674" lon="6.16777">
        <ele>284.99</ele>
        <time>2017-09-06T08:35:36Z</time>
      </trkpt>
      <trkpt lat="47.70677" lon="6.16805">
        <ele>285.5</ele>
        <time>2017-09-06T08:35:49Z</time>
      </trkpt>
      <trkpt lat="47.70679" lon="6.16834">
        <ele>285.77</ele>
        <time>2017-09-06T08:35:59Z</time>
      </trkpt>
      <trkpt lat="47.70685" lon="6.16859">
        <ele>285.89</ele>
        <time>2017-09-06T08:36:07Z</time>
      </trkpt>
      <trkpt lat="47.70689" lon="6.16885">
        <ele>285.98</ele>
        <time>2017-09-06T08:36:15Z</time>
      </trkpt>
      <trkpt lat="47.70697" lon="6.1691">
        <ele>286</ele>
        <time>2017-09-06T08:36:22Z</time>
      </trkpt>
      <trkpt lat="47.7071" lon="6.16933">
        <ele>286.1</ele>
        <time>2017-09-06T08:36:29Z</time>
      </trkpt>
      <trkpt lat="47.70713" lon="6.1696">
        <ele>286.22</ele>
        <time>2017-09-06T08:36:37Z</time>
      </trkpt>
      <trkpt lat="47.70718" lon="6.16989">
        <ele>286.34</ele>
        <time>2017-09-06T08:36:44Z</time>
      </trkpt>
      <trkpt lat="47.70721" lon="6.17019">
        <ele>286.46</ele>
        <time>2017-09-06T08:36:50Z</time>
      </trkpt>
      <trkpt lat="47.70726" lon="6.17047">
        <ele>286.59</ele>
        <time>2017-09-06T08:36:56Z</time>
      </trkpt>
      <trkpt lat="47.70729" lon="6.17078">
        <ele>286.73</ele>
        <time>2017-09-06T08:37:02Z</time>
      </trkpt>
      <trkpt lat="47.70734" lon="6.17108">
        <ele>286.87</ele>
        <time>2017-09-06T08:37:08Z</time>
      </trkpt>
      <trkpt lat="47.70739" lon="6.17134">
        <ele>287.02</ele>
        <time>2017-09-06T08:37:14Z</time>
      </trkpt>
      <trkpt lat="47.70743" lon="6.17161">
        <ele>287.19</ele>
        <time>2017-09-06T08:37:21Z</time>
      </trkpt>
      <trkpt lat="47.70748" lon="6.17189">
        <ele>287.4</ele>
        <time>2017-09-06T08:37:28Z</time>
      </trkpt>
      <trkpt lat="47.70753" lon="6.17219">
        <ele>287.59</ele>
        <time>2017-09-06T08:37:35Z</time>
      </trkpt>
      <trkpt lat="47.70758" lon="6.17245">
        <ele>287.76</ele>
        <time>2017-09-06T08:37:41Z</time>
      </trkpt>
      <trkpt lat="47.70764" lon="6.17273">
        <ele>288.01</ele>
        <time>2017-09-06T08:37:48Z</time>
      </trkpt>
      <trkpt lat="47.70768" lon="6.17303">
        <ele>288.3</ele>
        <time>2017-09-06T08:37:56Z</time>
      </trkpt>
      <trkpt lat="47.70772" lon="6.17329">
        <ele>288.52</ele>
        <time>2017-09-06T08:38:02Z</time>
      </trkpt>
      <trkpt lat="47.70775" lon="6.17357">
        <ele>288.72</ele>
        <time>2017-09-06T08:38:08Z</time>
      </trkpt>
      <trkpt lat="47.7078" lon="6.17383">
        <ele>289.08</ele>
        <time>2017-09-06T08:38:13Z</time>
      </trkpt>
      <trkpt lat="47.70785" lon="6.17417">
        <ele>289.97</ele>
        <time>2017-09-06T08:38:18Z</time>
      </trkpt>
      <trkpt lat="47.70787" lon="6.17446">
        <ele>290.34</ele>
        <time>2017-09-06T08:38:22Z</time>
      </trkpt>
      <trkpt lat="47.70794" lon="6.17478">
        <ele>290.47</ele>
        <time>2017-09-06T08:38:26Z</time>
      </trkpt>
      <trkpt lat="47.708" lon="6.17507">
        <ele>290.47</ele>
        <time>2017-09-06T08:38:32Z</time>
      </trkpt>
      <trkpt lat="47.70803" lon="6.17538">
        <ele>290.49</ele>
        <time>2017-09-06T08:38:40Z</time>
      </trkpt>
      <trkpt lat="47.70799" lon="6.17565">
        <ele>290.55</ele>
        <time>2017-09-06T08:38:47Z</time>
      </trkpt>
      <trkpt lat="47.70791" lon="6.17594">
        <ele>290.62</ele>
        <time>2017-09-06T08:38:54Z</time>
      </trkpt>
      <trkpt lat="47.7078" lon="6.17619">
        <ele>290.69</ele>
        <time>2017-09-06T08:39:01Z</time>
      </trkpt>
      <trkpt lat="47.70768" lon="6.17646">
        <ele>290.72</ele>
        <time>2017-09-06T08:39:07Z</time>
      </trkpt>
      <trkpt lat="47.70752" lon="6.17668">
        <ele>290.82</ele>
        <time>2017-09-06T08:39:12Z</time>
      </trkpt>
      <trkpt lat="47.70728" lon="6.17681">
        <ele>290.7</ele>
        <time>2017-09-06T08:39:15Z</time>
      </trkpt>
      <trkpt lat="47.70706" lon="6.17691">
        <ele>290.52</ele>
        <time>2017-09-06T08:39:18Z</time>
      </trkpt>
      <trkpt lat="47.70683" lon="6.17702">
        <ele>290.35</ele>
        <time>2017-09-06T08:39:21Z</time>
      </trkpt>
      <trkpt lat="47.70664" lon="6.17721">
        <ele>289.99</ele>
        <time>2017-09-06T08:39:24Z</time>
      </trkpt>
      <trkpt lat="47.7065" lon="6.17743">
        <ele>289.55</ele>
        <time>2017-09-06T08:39:27Z</time>
      </trkpt>
      <trkpt lat="47.70633" lon="6.17763">
        <ele>289.09</ele>
        <time>2017-09-06T08:39:31Z</time>
      </trkpt>
      <trkpt lat="47.70617" lon="6.17777">
        <ele>288.94</ele>
        <time>2017-09-06T08:39:36Z</time>
      </trkpt>
      <trkpt lat="47.70598" lon="6.17785">
        <ele>288.72</ele>
        <time>2017-09-06T08:39:43Z</time>
      </trkpt>
      <trkpt lat="47.7058" lon="6.17785">
        <ele>288.42</ele>
        <time>2017-09-06T08:39:49Z</time>
      </trkpt>
      <trkpt lat="47.70558" lon="6.17787">
        <ele>287.15</ele>
        <time>2017-09-06T08:39:55Z</time>
      </trkpt>
      <trkpt lat="47.70541" lon="6.17806">
        <ele>285.1</ele>
        <time>2017-09-06T08:39:59Z</time>
      </trkpt>
      <trkpt lat="47.70527" lon="6.17831">
        <ele>283.54</ele>
        <time>2017-09-06T08:40:03Z</time>
      </trkpt>
      <trkpt lat="47.70513" lon="6.17855">
        <ele>282.42</ele>
        <time>2017-09-06T08:40:06Z</time>
      </trkpt>
      <trkpt lat="47.70498" lon="6.1788">
        <ele>281.31</ele>
        <time>2017-09-06T08:40:09Z</time>
      </trkpt>
      <trkpt lat="47.70484" lon="6.17903">
        <ele>279.78</ele>
        <time>2017-09-06T08:40:12Z</time>
      </trkpt>
      <trkpt lat="47.70471" lon="6.17927">
        <ele>278.32</ele>
        <time>2017-09-06T08:40:15Z</time>
      </trkpt>
      <trkpt lat="47.70458" lon="6.17951">
        <ele>277.08</ele>
        <time>2017-09-06T08:40:18Z</time>
      </trkpt>
      <trkpt lat="47.70442" lon="6.17982">
        <ele>275.82</ele>
        <time>2017-09-06T08:40:21Z</time>
      </trkpt>
      <trkpt lat="47.70428" lon="6.18005">
        <ele>274.85</ele>
        <time>2017-09-06T08:40:23Z</time>
      </trkpt>
      <trkpt lat="47.70415" lon="6.18025">
        <ele>273.93</ele>
        <time>2017-09-06T08:40:25Z</time>
      </trkpt>
      <trkpt lat="47.70402" lon="6.18045">
        <ele>272.97</ele>
        <time>2017-09-06T08:40:27Z</time>
      </trkpt>
      <trkpt lat="47.70384" lon="6.18073">
        <ele>271.57</ele>
        <time>2017-09-06T08:40:30Z</time>
      </trkpt>
      <trkpt lat="47.70368" lon="6.181">
        <ele>270.36</ele>
        <time>2017-09-06T08:40:33Z</time>
      </trkpt>
      <trkpt lat="47.70353" lon="6.18125">
        <ele>269.25</ele>
        <time>2017-09-06T08:40:36Z</time>
      </trkpt>
      <trkpt lat="47.70341" lon="6.1815">
        <ele>268.28</ele>
        <time>2017-09-06T08:40:39Z</time>
      </trkpt>
      <trkpt lat="47.70332" lon="6.18175">
        <ele>267.42</ele>
        <time>2017-09-06T08:40:42Z</time>
      </trkpt>
      <trkpt lat="47.70325" lon="6.18201">
        <ele>266.65</ele>
        <time>2017-09-06T08:40:45Z</time>
      </trkpt>
      <trkpt lat="47.7032" lon="6.18227">
        <ele>265.82</ele>
        <time>2017-09-06T08:40:48Z</time>
      </trkpt>
      <trkpt lat="47.70315" lon="6.18255">
        <ele>264.88</ele>
        <time>2017-09-06T08:40:51Z</time>
      </trkpt>
      <trkpt lat="47.7031" lon="6.18289">
        <ele>263.81</ele>
        <time>2017-09-06T08:40:54Z</time>
      </trkpt>
      <trkpt lat="47.70305" lon="6.18324">
        <ele>262.99</ele>
        <time>2017-09-06T08:40:57Z</time>
      </trkpt>
      <trkpt lat="47.703" lon="6.1836">
        <ele>262.26</ele>
        <time>2017-09-06T08:41:00Z</time>
      </trkpt>
      <trkpt lat="47.70293" lon="6.18396">
        <ele>261.65</ele>
        <time>2017-09-06T08:41:03Z</time>
      </trkpt>
      <trkpt lat="47.70281" lon="6.18429">
        <ele>260.74</ele>
        <time>2017-09-06T08:41:06Z</time>
      </trkpt>
      <trkpt lat="47.70272" lon="6.18454">
        <ele>259.99</ele>
        <time>2017-09-06T08:41:08Z</time>
      </trkpt>
      <trkpt lat="47.70263" lon="6.1848">
        <ele>259.3</ele>
        <time>2017-09-06T08:41:10Z</time>
      </trkpt>
      <trkpt lat="47.70253" lon="6.18508">
        <ele>258.63</ele>
        <time>2017-09-06T08:41:12Z</time>
      </trkpt>
      <trkpt lat="47.70244" lon="6.18538">
        <ele>258.09</ele>
        <time>2017-09-06T08:41:14Z</time>
      </trkpt>
      <trkpt lat="47.70234" lon="6.18564">
        <ele>257.66</ele>
        <time>2017-09-06T08:41:16Z</time>
      </trkpt>
      <trkpt lat="47.70224" lon="6.18586">
        <ele>257.31</ele>
        <time>2017-09-06T08:41:18Z</time>
      </trkpt>
      <trkpt lat="47.70211" lon="6.18613">
        <ele>257.12</ele>
        <time>2017-09-06T08:41:21Z</time>
      </trkpt>
      <trkpt lat="47.70191" lon="6.18627">
        <ele>257.62</ele>
        <time>2017-09-06T08:41:26Z</time>
      </trkpt>
      <trkpt lat="47.70171" lon="6.18628">
        <ele>257.67</ele>
        <time>2017-09-06T08:41:30Z</time>
      </trkpt>
      <trkpt lat="47.70152" lon="6.18629">
        <ele>257.77</ele>
        <time>2017-09-06T08:41:34Z</time>
      </trkpt>
      <trkpt lat="47.70131" lon="6.18635">
        <ele>257.7</ele>
        <time>2017-09-06T08:41:38Z</time>
      </trkpt>
      <trkpt lat="47.7011" lon="6.18646">
        <ele>257.58</ele>
        <time>2017-09-06T08:41:42Z</time>
      </trkpt>
      <trkpt lat="47.70094" lon="6.18655">
        <ele>257.21</ele>
        <time>2017-09-06T08:41:45Z</time>
      </trkpt>
      <trkpt lat="47.70074" lon="6.1867">
        <ele>257.36</ele>
        <time>2017-09-06T08:41:49Z</time>
      </trkpt>
      <trkpt lat="47.70055" lon="6.18686">
        <ele>257.82</ele>
        <time>2017-09-06T08:41:53Z</time>
      </trkpt>
      <trkpt lat="47.70037" lon="6.187">
        <ele>258.32</ele>
        <time>2017-09-06T08:41:57Z</time>
      </trkpt>
      <trkpt lat="47.70021" lon="6.18714">
        <ele>258.75</ele>
        <time>2017-09-06T08:42:01Z</time>
      </trkpt>
      <trkpt lat="47.70004" lon="6.18727">
        <ele>258.88</ele>
        <time>2017-09-06T08:42:05Z</time>
      </trkpt>
      <trkpt lat="47.69986" lon="6.18742">
        <ele>259.23</ele>
        <time>2017-09-06T08:42:10Z</time>
      </trkpt>
      <trkpt lat="47.69968" lon="6.18748">
        <ele>259.47</ele>
        <time>2017-09-06T08:42:15Z</time>
      </trkpt>
      <trkpt lat="47.6995" lon="6.18758">
        <ele>259.6</ele>
        <time>2017-09-06T08:42:21Z</time>
      </trkpt>
      <trkpt lat="47.69943" lon="6.18787">
        <ele>258.9</ele>
        <time>2017-09-06T08:42:26Z</time>
      </trkpt>
      <trkpt lat="47.69944" lon="6.18819">
        <ele>257.48</ele>
        <time>2017-09-06T08:42:30Z</time>
      </trkpt>
      <trkpt lat="47.69946" lon="6.18848">
        <ele>256.34</ele>
        <time>2017-09-06T08:42:35Z</time>
      </trkpt>
      <trkpt lat="47.69948" lon="6.18875">
        <ele>253.31</ele>
        <time>2017-09-06T08:42:39Z</time>
      </trkpt>
      <trkpt lat="47.69951" lon="6.18906">
        <ele>251.43</ele>
        <time>2017-09-06T08:42:44Z</time>
      </trkpt>
      <trkpt lat="47.69953" lon="6.18934">
        <ele>250.3</ele>
        <time>2017-09-06T08:42:49Z</time>
      </trkpt>
      <trkpt lat="47.69948" lon="6.18962">
        <ele>250.08</ele>
        <time>2017-09-06T08:42:55Z</time>
      </trkpt>
      <trkpt lat="47.69959" lon="6.18988">
        <ele>249.73</ele>
        <time>2017-09-06T08:43:06Z</time>
      </trkpt>
      <trkpt lat="47.69962" lon="6.19017">
        <ele>249.48</ele>
        <time>2017-09-06T08:43:12Z</time>
      </trkpt>
      <trkpt lat="47.69961" lon="6.19048">
        <ele>249.2</ele>
        <time>2017-09-06T08:43:18Z</time>
      </trkpt>
      <trkpt lat="47.69953" lon="6.19076">
        <ele>248.92</ele>
        <time>2017-09-06T08:43:25Z</time>
      </trkpt>
      <trkpt lat="47.69932" lon="6.19084">
        <ele>247.72</ele>
        <time>2017-09-06T08:43:30Z</time>
      </trkpt>
      <trkpt lat="47.69911" lon="6.1909">
        <ele>247.24</ele>
        <time>2017-09-06T08:43:34Z</time>
      </trkpt>
      <trkpt lat="47.69888" lon="6.19096">
        <ele>246.9</ele>
        <time>2017-09-06T08:43:38Z</time>
      </trkpt>
      <trkpt lat="47.69866" lon="6.19103">
        <ele>246.66</ele>
        <time>2017-09-06T08:43:42Z</time>
      </trkpt>
      <trkpt lat="47.69846" lon="6.19107">
        <ele>246.32</ele>
        <time>2017-09-06T08:43:45Z</time>
      </trkpt>
      <trkpt lat="47.69826" lon="6.19111">
        <ele>245.74</ele>
        <time>2017-09-06T08:43:48Z</time>
      </trkpt>
      <trkpt lat="47.69809" lon="6.19122">
        <ele>245.02</ele>
        <time>2017-09-06T08:43:51Z</time>
      </trkpt>
      <trkpt lat="47.6979" lon="6.19136">
        <ele>243.9</ele>
        <time>2017-09-06T08:43:55Z</time>
      </trkpt>
      <trkpt lat="47.69773" lon="6.19145">
        <ele>242.9</ele>
        <time>2017-09-06T08:43:59Z</time>
      </trkpt>
      <trkpt lat="47.69754" lon="6.19158">
        <ele>241.92</ele>
        <time>2017-09-06T08:44:04Z</time>
      </trkpt>
      <trkpt lat="47.69734" lon="6.19173">
        <ele>240.92</ele>
        <time>2017-09-06T08:44:09Z</time>
      </trkpt>
      <trkpt lat="47.69715" lon="6.19187">
        <ele>240.27</ele>
        <time>2017-09-06T08:44:14Z</time>
      </trkpt>
      <trkpt lat="47.69698" lon="6.192">
        <ele>240.15</ele>
        <time>2017-09-06T08:44:19Z</time>
      </trkpt>
      <trkpt lat="47.69682" lon="6.19216">
        <ele>240.06</ele>
        <time>2017-09-06T08:44:25Z</time>
      </trkpt>
      <trkpt lat="47.69666" lon="6.1923">
        <ele>239.99</ele>
        <time>2017-09-06T08:44:31Z</time>
      </trkpt>
      <trkpt lat="47.69648" lon="6.19244">
        <ele>239.93</ele>
        <time>2017-09-06T08:44:37Z</time>
      </trkpt>
      <trkpt lat="47.69629" lon="6.19256">
        <ele>239.86</ele>
        <time>2017-09-06T08:44:43Z</time>
      </trkpt>
      <trkpt lat="47.6961" lon="6.19266">
        <ele>239.42</ele>
        <time>2017-09-06T08:44:48Z</time>
      </trkpt>
      <trkpt lat="47.69588" lon="6.19273">
        <ele>239.15</ele>
        <time>2017-09-06T08:44:53Z</time>
      </trkpt>
      <trkpt lat="47.6957" lon="6.19279">
        <ele>238.98</ele>
        <time>2017-09-06T08:44:57Z</time>
      </trkpt>
      <trkpt lat="47.69549" lon="6.19283">
        <ele>238.81</ele>
        <time>2017-09-06T08:45:02Z</time>
      </trkpt>
      <trkpt lat="47.6953" lon="6.1929">
        <ele>238.58</ele>
        <time>2017-09-06T08:45:07Z</time>
      </trkpt>
      <trkpt lat="47.69513" lon="6.19301">
        <ele>238.52</ele>
        <time>2017-09-06T08:45:12Z</time>
      </trkpt>
      <trkpt lat="47.69495" lon="6.19316">
        <ele>238.47</ele>
        <time>2017-09-06T08:45:18Z</time>
      </trkpt>
      <trkpt lat="47.6948" lon="6.19331">
        <ele>238.4</ele>
        <time>2017-09-06T08:45:24Z</time>
      </trkpt>
      <trkpt lat="47.69465" lon="6.19347">
        <ele>238.34</ele>
        <time>2017-09-06T08:45:31Z</time>
      </trkpt>
      <trkpt lat="47.69449" lon="6.19365">
        <ele>238.27</ele>
        <time>2017-09-06T08:45:40Z</time>
      </trkpt>
      <trkpt lat="47.69436" lon="6.19386">
        <ele>238.23</ele>
        <time>2017-09-06T08:45:47Z</time>
      </trkpt>
      <trkpt lat="47.69429" lon="6.19412">
        <ele>238.13</ele>
        <time>2017-09-06T08:45:52Z</time>
      </trkpt>
      <trkpt lat="47.69421" lon="6.19441">
        <ele>237.91</ele>
        <time>2017-09-06T08:45:57Z</time>
      </trkpt>
      <trkpt lat="47.69405" lon="6.19462">
        <ele>237.78</ele>
        <time>2017-09-06T08:46:01Z</time>
      </trkpt>
      <trkpt lat="47.69388" lon="6.19481">
        <ele>237.66</ele>
        <time>2017-09-06T08:46:05Z</time>
      </trkpt>
      <trkpt lat="47.69371" lon="6.19496">
        <ele>237.57</ele>
        <time>2017-09-06T08:46:09Z</time>
      </trkpt>
      <trkpt lat="47.69353" lon="6.19511">
        <ele>237.49</ele>
        <time>2017-09-06T08:46:14Z</time>
      </trkpt>
      <trkpt lat="47.69336" lon="6.19524">
        <ele>237.48</ele>
        <time>2017-09-06T08:46:19Z</time>
      </trkpt>
      <trkpt lat="47.69318" lon="6.19538">
        <ele>237.47</ele>
        <time>2017-09-06T08:46:25Z</time>
      </trkpt>
      <trkpt lat="47.69301" lon="6.19551">
        <ele>237.44</ele>
        <time>2017-09-06T08:46:32Z</time>
      </trkpt>
      <trkpt lat="47.69282" lon="6.19564">
        <ele>237.42</ele>
        <time>2017-09-06T08:46:39Z</time>
      </trkpt>
      <trkpt lat="47.69263" lon="6.19573">
        <ele>237.39</ele>
        <time>2017-09-06T08:46:46Z</time>
      </trkpt>
      <trkpt lat="47.69246" lon="6.19582">
        <ele>237.37</ele>
        <time>2017-09-06T08:46:52Z</time>
      </trkpt>
      <trkpt lat="47.69229" lon="6.19588">
        <ele>237.34</ele>
        <time>2017-09-06T08:46:59Z</time>
      </trkpt>
      <trkpt lat="47.69209" lon="6.19594">
        <ele>237.31</ele>
        <time>2017-09-06T08:47:06Z</time>
      </trkpt>
      <trkpt lat="47.69191" lon="6.19601">
        <ele>237.28</ele>
        <time>2017-09-06T08:47:12Z</time>
      </trkpt>
      <trkpt lat="47.69171" lon="6.19608">
        <ele>237.26</ele>
        <time>2017-09-06T08:47:19Z</time>
      </trkpt>
      <trkpt lat="47.69151" lon="6.19614">
        <ele>237.25</ele>
        <time>2017-09-06T08:47:27Z</time>
      </trkpt>
      <trkpt lat="47.69131" lon="6.19623">
        <ele>237.25</ele>
        <time>2017-09-06T08:47:34Z</time>
      </trkpt>
      <trkpt lat="47.69113" lon="6.19628">
        <ele>237.27</ele>
        <time>2017-09-06T08:47:41Z</time>
      </trkpt>
      <trkpt lat="47.69095" lon="6.19635">
        <ele>237.31</ele>
        <time>2017-09-06T08:47:49Z</time>
      </trkpt>
      <trkpt lat="47.69075" lon="6.19642">
        <ele>237.38</ele>
        <time>2017-09-06T08:47:57Z</time>
      </trkpt>
      <trkpt lat="47.69056" lon="6.19646">
        <ele>237.47</ele>
        <time>2017-09-06T08:48:05Z</time>
      </trkpt>
      <trkpt lat="47.69036" lon="6.19651">
        <ele>237.57</ele>
        <time>2017-09-06T08:48:13Z</time>
      </trkpt>
      <trkpt lat="47.69017" lon="6.19655">
        <ele>237.67</ele>
        <time>2017-09-06T08:48:20Z</time>
      </trkpt>
      <trkpt lat="47.68999" lon="6.19659">
        <ele>237.8</ele>
        <time>2017-09-06T08:48:28Z</time>
      </trkpt>
      <trkpt lat="47.68981" lon="6.19662">
        <ele>237.94</ele>
        <time>2017-09-06T08:48:36Z</time>
      </trkpt>
      <trkpt lat="47.68961" lon="6.19667">
        <ele>238.1</ele>
        <time>2017-09-06T08:48:44Z</time>
      </trkpt>
      <trkpt lat="47.68942" lon="6.19665">
        <ele>238.29</ele>
        <time>2017-09-06T08:48:53Z</time>
      </trkpt>
      <trkpt lat="47.68924" lon="6.19649">
        <ele>238.47</ele>
        <time>2017-09-06T08:49:01Z</time>
      </trkpt>
      <trkpt lat="47.68907" lon="6.19635">
        <ele>238.6</ele>
        <time>2017-09-06T08:49:07Z</time>
      </trkpt>
      <trkpt lat="47.68887" lon="6.19632">
        <ele>238.74</ele>
        <time>2017-09-06T08:49:13Z</time>
      </trkpt>
      <trkpt lat="47.68867" lon="6.19638">
        <ele>238.99</ele>
        <time>2017-09-06T08:49:19Z</time>
      </trkpt>
      <trkpt lat="47.68849" lon="6.19646">
        <ele>239.5</ele>
        <time>2017-09-06T08:49:23Z</time>
      </trkpt>
      <trkpt lat="47.68832" lon="6.19653">
        <ele>239.67</ele>
        <time>2017-09-06T08:49:26Z</time>
      </trkpt>
      <trkpt lat="47.68811" lon="6.19662">
        <ele>239.72</ele>
        <time>2017-09-06T08:49:29Z</time>
      </trkpt>
      <trkpt lat="47.68788" lon="6.19669">
        <ele>239.76</ele>
        <time>2017-09-06T08:49:32Z</time>
      </trkpt>
      <trkpt lat="47.68767" lon="6.19672">
        <ele>239.8</ele>
        <time>2017-09-06T08:49:35Z</time>
      </trkpt>
      <trkpt lat="47.68749" lon="6.19676">
        <ele>240.02</ele>
        <time>2017-09-06T08:49:38Z</time>
      </trkpt>
      <trkpt lat="47.68729" lon="6.1968">
        <ele>240.47</ele>
        <time>2017-09-06T08:49:42Z</time>
      </trkpt>
      <trkpt lat="47.68711" lon="6.19682">
        <ele>240.85</ele>
        <time>2017-09-06T08:49:47Z</time>
      </trkpt>
      <trkpt lat="47.68691" lon="6.19683">
        <ele>241</ele>
        <time>2017-09-06T08:49:55Z</time>
      </trkpt>
      <trkpt lat="47.68672" lon="6.19681">
        <ele>241.53</ele>
        <time>2017-09-06T08:50:06Z</time>
      </trkpt>
      <trkpt lat="47.68654" lon="6.19678">
        <ele>242.52</ele>
        <time>2017-09-06T08:50:17Z</time>
      </trkpt>
      <trkpt lat="47.68637" lon="6.19671">
        <ele>244.21</ele>
        <time>2017-09-06T08:50:29Z</time>
      </trkpt>
      <trkpt lat="47.68618" lon="6.19667">
        <ele>246.6</ele>
        <time>2017-09-06T08:50:42Z</time>
      </trkpt>
      <trkpt lat="47.68599" lon="6.19662">
        <ele>249.55</ele>
        <time>2017-09-06T08:50:55Z</time>
      </trkpt>
      <trkpt lat="47.68581" lon="6.1965">
        <ele>254.06</ele>
        <time>2017-09-06T08:51:12Z</time>
      </trkpt>
      <trkpt lat="47.68568" lon="6.1963">
        <ele>259.37</ele>
        <time>2017-09-06T08:51:31Z</time>
      </trkpt>
      <trkpt lat="47.68552" lon="6.19613">
        <ele>263.29</ele>
        <time>2017-09-06T08:51:46Z</time>
      </trkpt>
      <trkpt lat="47.68539" lon="6.19594">
        <ele>266.93</ele>
        <time>2017-09-06T08:52:00Z</time>
      </trkpt>
      <trkpt lat="47.6852" lon="6.19575">
        <ele>270.38</ele>
        <time>2017-09-06T08:52:13Z</time>
      </trkpt>
      <trkpt lat="47.68503" lon="6.19563">
        <ele>273.33</ele>
        <time>2017-09-06T08:52:24Z</time>
      </trkpt>
      <trkpt lat="47.68488" lon="6.19547">
        <ele>277.07</ele>
        <time>2017-09-06T08:52:40Z</time>
      </trkpt>
      <trkpt lat="47.68474" lon="6.1953">
        <ele>279.94</ele>
        <time>2017-09-06T08:52:54Z</time>
      </trkpt>
      <trkpt lat="47.68458" lon="6.19515">
        <ele>282.15</ele>
        <time>2017-09-06T08:53:07Z</time>
      </trkpt>
      <trkpt lat="47.68447" lon="6.19493">
        <ele>283.8</ele>
        <time>2017-09-06T08:53:20Z</time>
      </trkpt>
      <trkpt lat="47.68435" lon="6.19471">
        <ele>285.07</ele>
        <time>2017-09-06T08:53:32Z</time>
      </trkpt>
      <trkpt lat="47.68421" lon="6.19454">
        <ele>286.01</ele>
        <time>2017-09-06T08:53:44Z</time>
      </trkpt>
      <trkpt lat="47.68418" lon="6.19481">
        <ele>285.47</ele>
        <time>2017-09-06T08:54:30Z</time>
      </trkpt>
      <trkpt lat="47.68423" lon="6.19508">
        <ele>285.49</ele>
        <time>2017-09-06T08:54:35Z</time>
      </trkpt>
      <trkpt lat="47.68426" lon="6.19539">
        <ele>285.58</ele>
        <time>2017-09-06T08:54:41Z</time>
      </trkpt>
      <trkpt lat="47.68439" lon="6.19564">
        <ele>285.63</ele>
        <time>2017-09-06T08:54:45Z</time>
      </trkpt>
      <trkpt lat="47.68448" lon="6.19589">
        <ele>285.69</ele>
        <time>2017-09-06T08:54:50Z</time>
      </trkpt>
      <trkpt lat="47.6845" lon="6.19626">
        <ele>285.75</ele>
        <time>2017-09-06T08:54:55Z</time>
      </trkpt>
      <trkpt lat="47.68449" lon="6.19656">
        <ele>285.81</ele>
        <time>2017-09-06T08:55:01Z</time>
      </trkpt>
      <trkpt lat="47.68457" lon="6.19681">
        <ele>285.84</ele>
        <time>2017-09-06T08:55:06Z</time>
      </trkpt>
      <trkpt lat="47.6847" lon="6.19706">
        <ele>285.86</ele>
        <time>2017-09-06T08:55:11Z</time>
      </trkpt>
      <trkpt lat="47.68483" lon="6.19726">
        <ele>285.88</ele>
        <time>2017-09-06T08:55:15Z</time>
      </trkpt>
      <trkpt lat="47.68497" lon="6.19747">
        <ele>285.88</ele>
        <time>2017-09-06T08:55:20Z</time>
      </trkpt>
      <trkpt lat="47.68509" lon="6.19769">
        <ele>285.88</ele>
        <time>2017-09-06T08:55:23Z</time>
      </trkpt>
      <trkpt lat="47.68519" lon="6.19791">
        <ele>285.89</ele>
        <time>2017-09-06T08:55:30Z</time>
      </trkpt>
      <trkpt lat="47.68527" lon="6.19818">
        <ele>285.89</ele>
        <time>2017-09-06T08:55:40Z</time>
      </trkpt>
      <trkpt lat="47.6853" lon="6.19847">
        <ele>285.91</ele>
        <time>2017-09-06T08:55:52Z</time>
      </trkpt>
      <trkpt lat="47.68534" lon="6.19879">
        <ele>285.93</ele>
        <time>2017-09-06T08:55:59Z</time>
      </trkpt>
      <trkpt lat="47.68538" lon="6.19906">
        <ele>285.94</ele>
        <time>2017-09-06T08:56:04Z</time>
      </trkpt>
      <trkpt lat="47.68541" lon="6.19936">
        <ele>285.96</ele>
        <time>2017-09-06T08:56:11Z</time>
      </trkpt>
      <trkpt lat="47.68545" lon="6.19965">
        <ele>285.99</ele>
        <time>2017-09-06T08:56:18Z</time>
      </trkpt>
      <trkpt lat="47.68549" lon="6.19993">
        <ele>286.02</ele>
        <time>2017-09-06T08:56:25Z</time>
      </trkpt>
      <trkpt lat="47.68553" lon="6.20019">
        <ele>286.06</ele>
        <time>2017-09-06T08:56:32Z</time>
      </trkpt>
      <trkpt lat="47.68556" lon="6.20047">
        <ele>286.13</ele>
        <time>2017-09-06T08:56:43Z</time>
      </trkpt>
      <trkpt lat="47.68568" lon="6.2007">
        <ele>286.19</ele>
        <time>2017-09-06T08:56:52Z</time>
      </trkpt>
      <trkpt lat="47.6858" lon="6.2009">
        <ele>286.31</ele>
        <time>2017-09-06T08:57:04Z</time>
      </trkpt>
      <trkpt lat="47.68587" lon="6.20116">
        <ele>286.41</ele>
        <time>2017-09-06T08:57:14Z</time>
      </trkpt>
      <trkpt lat="47.68596" lon="6.20143">
        <ele>286.5</ele>
        <time>2017-09-06T08:57:24Z</time>
      </trkpt>
      <trkpt lat="47.68598" lon="6.2017">
        <ele>286.57</ele>
        <time>2017-09-06T08:57:33Z</time>
      </trkpt>
      <trkpt lat="47.68607" lon="6.20193">
        <ele>286.66</ele>
        <time>2017-09-06T08:57:42Z</time>
      </trkpt>
      <trkpt lat="47.68617" lon="6.20215">
        <ele>286.74</ele>
        <time>2017-09-06T08:57:51Z</time>
      </trkpt>
      <trkpt lat="47.68621" lon="6.20242">
        <ele>286.89</ele>
        <time>2017-09-06T08:58:06Z</time>
      </trkpt>
      <trkpt lat="47.68622" lon="6.20271">
        <ele>287.05</ele>
        <time>2017-09-06T08:58:20Z</time>
      </trkpt>
      <trkpt lat="47.68625" lon="6.20298">
        <ele>287.23</ele>
        <time>2017-09-06T08:58:34Z</time>
      </trkpt>
      <trkpt lat="47.68626" lon="6.20325">
        <ele>287.46</ele>
        <time>2017-09-06T08:58:48Z</time>
      </trkpt>
      <trkpt lat="47.68635" lon="6.20348">
        <ele>287.68</ele>
        <time>2017-09-06T08:59:00Z</time>
      </trkpt>
      <trkpt lat="47.6865" lon="6.20364">
        <ele>287.81</ele>
        <time>2017-09-06T08:59:07Z</time>
      </trkpt>
      <trkpt lat="47.68661" lon="6.20386">
        <ele>288.19</ele>
        <time>2017-09-06T08:59:24Z</time>
      </trkpt>
      <trkpt lat="47.68663" lon="6.20413">
        <ele>288.56</ele>
        <time>2017-09-06T08:59:42Z</time>
      </trkpt>
      <trkpt lat="47.6867" lon="6.20438">
        <ele>289.02</ele>
        <time>2017-09-06T09:00:02Z</time>
      </trkpt>
      <trkpt lat="47.68691" lon="6.20447">
        <ele>289.39</ele>
        <time>2017-09-06T09:00:11Z</time>
      </trkpt>
      <trkpt lat="47.68703" lon="6.20467">
        <ele>290.2</ele>
        <time>2017-09-06T09:00:25Z</time>
      </trkpt>
      <trkpt lat="47.68711" lon="6.20492">
        <ele>291.2</ele>
        <time>2017-09-06T09:00:42Z</time>
      </trkpt>
      <trkpt lat="47.68717" lon="6.20518">
        <ele>291.93</ele>
        <time>2017-09-06T09:00:54Z</time>
      </trkpt>
      <trkpt lat="47.68721" lon="6.20546">
        <ele>292.94</ele>
        <time>2017-09-06T09:01:10Z</time>
      </trkpt>
      <trkpt lat="47.68736" lon="6.20567">
        <ele>294.14</ele>
        <time>2017-09-06T09:01:40Z</time>
      </trkpt>
      <trkpt lat="47.68742" lon="6.20593">
        <ele>295.24</ele>
        <time>2017-09-06T09:01:53Z</time>
      </trkpt>
      <trkpt lat="47.6875" lon="6.20618">
        <ele>296.17</ele>
        <time>2017-09-06T09:02:04Z</time>
      </trkpt>
      <trkpt lat="47.68757" lon="6.20644">
        <ele>297.62</ele>
        <time>2017-09-06T09:02:21Z</time>
      </trkpt>
      <trkpt lat="47.68761" lon="6.20673">
        <ele>299.13</ele>
        <time>2017-09-06T09:02:36Z</time>
      </trkpt>
      <trkpt lat="47.68764" lon="6.20701">
        <ele>300.47</ele>
        <time>2017-09-06T09:02:50Z</time>
      </trkpt>
      <trkpt lat="47.68771" lon="6.20729">
        <ele>301.24</ele>
        <time>2017-09-06T09:02:59Z</time>
      </trkpt>
      <trkpt lat="47.6878" lon="6.20752">
        <ele>301.62</ele>
        <time>2017-09-06T09:03:05Z</time>
      </trkpt>
      <trkpt lat="47.68792" lon="6.20773">
        <ele>301.93</ele>
        <time>2017-09-06T09:03:14Z</time>
      </trkpt>
      <trkpt lat="47.68804" lon="6.20793">
        <ele>302.16</ele>
        <time>2017-09-06T09:03:20Z</time>
      </trkpt>
      <trkpt lat="47.6881" lon="6.20819">
        <ele>302.61</ele>
        <time>2017-09-06T09:03:30Z</time>
      </trkpt>
      <trkpt lat="47.68807" lon="6.20847">
        <ele>303.36</ele>
        <time>2017-09-06T09:03:42Z</time>
      </trkpt>
      <trkpt lat="47.68802" lon="6.20873">
        <ele>304.05</ele>
        <time>2017-09-06T09:03:51Z</time>
      </trkpt>
      <trkpt lat="47.68803" lon="6.209">
        <ele>305.7</ele>
        <time>2017-09-06T09:04:10Z</time>
      </trkpt>
      <trkpt lat="47.68793" lon="6.20923">
        <ele>307.06</ele>
        <time>2017-09-06T09:04:25Z</time>
      </trkpt>
      <trkpt lat="47.68774" lon="6.20913">
        <ele>308.07</ele>
        <time>2017-09-06T09:04:36Z</time>
      </trkpt>
      <trkpt lat="47.68755" lon="6.20909">
        <ele>308.86</ele>
        <time>2017-09-06T09:04:44Z</time>
      </trkpt>
      <trkpt lat="47.68737" lon="6.20908">
        <ele>309.88</ele>
        <time>2017-09-06T09:04:54Z</time>
      </trkpt>
      <trkpt lat="47.68719" lon="6.20908">
        <ele>311.05</ele>
        <time>2017-09-06T09:05:05Z</time>
      </trkpt>
      <trkpt lat="47.687" lon="6.20905">
        <ele>312.61</ele>
        <time>2017-09-06T09:05:19Z</time>
      </trkpt>
      <trkpt lat="47.68683" lon="6.20898">
        <ele>314.07</ele>
        <time>2017-09-06T09:05:33Z</time>
      </trkpt>
      <trkpt lat="47.68666" lon="6.20886">
        <ele>314.97</ele>
        <time>2017-09-06T09:05:42Z</time>
      </trkpt>
      <trkpt lat="47.68649" lon="6.20868">
        <ele>315.92</ele>
        <time>2017-09-06T09:05:52Z</time>
      </trkpt>
      <trkpt lat="47.68637" lon="6.20847">
        <ele>316.7</ele>
        <time>2017-09-06T09:06:01Z</time>
      </trkpt>
      <trkpt lat="47.68626" lon="6.20826">
        <ele>317.26</ele>
        <time>2017-09-06T09:06:08Z</time>
      </trkpt>
      <trkpt lat="47.68614" lon="6.20801">
        <ele>317.71</ele>
        <time>2017-09-06T09:06:14Z</time>
      </trkpt>
      <trkpt lat="47.68601" lon="6.20779">
        <ele>318.12</ele>
        <time>2017-09-06T09:06:20Z</time>
      </trkpt>
      <trkpt lat="47.68587" lon="6.20757">
        <ele>318.44</ele>
        <time>2017-09-06T09:06:25Z</time>
      </trkpt>
      <trkpt lat="47.68573" lon="6.20737">
        <ele>318.76</ele>
        <time>2017-09-06T09:06:30Z</time>
      </trkpt>
      <trkpt lat="47.68562" lon="6.20717">
        <ele>319.13</ele>
        <time>2017-09-06T09:06:36Z</time>
      </trkpt>
      <trkpt lat="47.68549" lon="6.20694">
        <ele>319.43</ele>
        <time>2017-09-06T09:06:41Z</time>
      </trkpt>
      <trkpt lat="47.68533" lon="6.2067">
        <ele>319.73</ele>
        <time>2017-09-06T09:06:46Z</time>
      </trkpt>
      <trkpt lat="47.6852" lon="6.20648">
        <ele>320.03</ele>
        <time>2017-09-06T09:06:51Z</time>
      </trkpt>
      <trkpt lat="47.68505" lon="6.20627">
        <ele>321.08</ele>
        <time>2017-09-06T09:06:56Z</time>
      </trkpt>
      <trkpt lat="47.6849" lon="6.20607">
        <ele>321.44</ele>
        <time>2017-09-06T09:07:01Z</time>
      </trkpt>
      <trkpt lat="47.68475" lon="6.20587">
        <ele>321.59</ele>
        <time>2017-09-06T09:07:05Z</time>
      </trkpt>
      <trkpt lat="47.68457" lon="6.20569">
        <ele>321.81</ele>
        <time>2017-09-06T09:07:10Z</time>
      </trkpt>
      <trkpt lat="47.6844" lon="6.20554">
        <ele>322.04</ele>
        <time>2017-09-06T09:07:15Z</time>
      </trkpt>
      <trkpt lat="47.68423" lon="6.20541">
        <ele>322.35</ele>
        <time>2017-09-06T09:07:21Z</time>
      </trkpt>
      <trkpt lat="47.68406" lon="6.20528">
        <ele>322.74</ele>
        <time>2017-09-06T09:07:28Z</time>
      </trkpt>
      <trkpt lat="47.68389" lon="6.20515">
        <ele>323.11</ele>
        <time>2017-09-06T09:07:34Z</time>
      </trkpt>
      <trkpt lat="47.68371" lon="6.20501">
        <ele>323.53</ele>
        <time>2017-09-06T09:07:40Z</time>
      </trkpt>
      <trkpt lat="47.68352" lon="6.20492">
        <ele>324</ele>
        <time>2017-09-06T09:07:46Z</time>
      </trkpt>
      <trkpt lat="47.68333" lon="6.2048">
        <ele>324.67</ele>
        <time>2017-09-06T09:07:53Z</time>
      </trkpt>
      <trkpt lat="47.68316" lon="6.20471">
        <ele>325.5</ele>
        <time>2017-09-06T09:08:01Z</time>
      </trkpt>
      <trkpt lat="47.68297" lon="6.20462">
        <ele>327.68</ele>
        <time>2017-09-06T09:08:21Z</time>
      </trkpt>
      <trkpt lat="47.68279" lon="6.20453">
        <ele>328.25</ele>
        <time>2017-09-06T09:08:28Z</time>
      </trkpt>
      <trkpt lat="47.68261" lon="6.20438">
        <ele>328.84</ele>
        <time>2017-09-06T09:08:36Z</time>
      </trkpt>
      <trkpt lat="47.68244" lon="6.20426">
        <ele>329.25</ele>
        <time>2017-09-06T09:08:42Z</time>
      </trkpt>
      <trkpt lat="47.68224" lon="6.20412">
        <ele>329.56</ele>
        <time>2017-09-06T09:08:48Z</time>
      </trkpt>
      <trkpt lat="47.68205" lon="6.204">
        <ele>329.75</ele>
        <time>2017-09-06T09:08:54Z</time>
      </trkpt>
      <trkpt lat="47.68187" lon="6.20386">
        <ele>329.88</ele>
        <time>2017-09-06T09:09:01Z</time>
      </trkpt>
      <trkpt lat="47.68169" lon="6.20376">
        <ele>329.95</ele>
        <time>2017-09-06T09:09:09Z</time>
      </trkpt>
      <trkpt lat="47.68151" lon="6.20369">
        <ele>329.96</ele>
        <time>2017-09-06T09:09:19Z</time>
      </trkpt>
      <trkpt lat="47.68131" lon="6.20362">
        <ele>329.97</ele>
        <time>2017-09-06T09:09:29Z</time>
      </trkpt>
      <trkpt lat="47.68111" lon="6.20353">
        <ele>329.98</ele>
        <time>2017-09-06T09:09:36Z</time>
      </trkpt>
      <trkpt lat="47.68092" lon="6.20344">
        <ele>329.99</ele>
        <time>2017-09-06T09:09:42Z</time>
      </trkpt>
      <trkpt lat="47.68072" lon="6.20337">
        <ele>329.91</ele>
        <time>2017-09-06T09:09:47Z</time>
      </trkpt>
      <trkpt lat="47.68052" lon="6.2033">
        <ele>329.87</ele>
        <time>2017-09-06T09:09:53Z</time>
      </trkpt>
      <trkpt lat="47.68034" lon="6.20321">
        <ele>329.85</ele>
        <time>2017-09-06T09:09:59Z</time>
      </trkpt>
      <trkpt lat="47.68016" lon="6.20313">
        <ele>329.83</ele>
        <time>2017-09-06T09:10:05Z</time>
      </trkpt>
      <trkpt lat="47.67996" lon="6.20305">
        <ele>329.81</ele>
        <time>2017-09-06T09:10:11Z</time>
      </trkpt>
      <trkpt lat="47.67976" lon="6.20297">
        <ele>329.79</ele>
        <time>2017-09-06T09:10:17Z</time>
      </trkpt>
      <trkpt lat="47.67957" lon="6.20285">
        <ele>329.62</ele>
        <time>2017-09-06T09:10:23Z</time>
      </trkpt>
      <trkpt lat="47.6794" lon="6.20272">
        <ele>329.42</ele>
        <time>2017-09-06T09:10:27Z</time>
      </trkpt>
      <trkpt lat="47.6792" lon="6.20255">
        <ele>329.18</ele>
        <time>2017-09-06T09:10:31Z</time>
      </trkpt>
      <trkpt lat="47.67903" lon="6.20241">
        <ele>328.95</ele>
        <time>2017-09-06T09:10:34Z</time>
      </trkpt>
      <trkpt lat="47.67885" lon="6.20225">
        <ele>328.71</ele>
        <time>2017-09-06T09:10:37Z</time>
      </trkpt>
      <trkpt lat="47.67867" lon="6.20209">
        <ele>328.36</ele>
        <time>2017-09-06T09:10:40Z</time>
      </trkpt>
      <trkpt lat="47.67851" lon="6.20194">
        <ele>327.91</ele>
        <time>2017-09-06T09:10:43Z</time>
      </trkpt>
      <trkpt lat="47.67831" lon="6.20191">
        <ele>327.6</ele>
        <time>2017-09-06T09:10:47Z</time>
      </trkpt>
      <trkpt lat="47.67814" lon="6.20206">
        <ele>327.5</ele>
        <time>2017-09-06T09:11:06Z</time>
      </trkpt>
      <trkpt lat="47.67799" lon="6.20225">
        <ele>327.03</ele>
        <time>2017-09-06T09:11:48Z</time>
      </trkpt>
      <trkpt lat="47.67781" lon="6.20236">
        <ele>326.01</ele>
        <time>2017-09-06T09:11:53Z</time>
      </trkpt>
      <trkpt lat="47.67762" lon="6.20241">
        <ele>325.26</ele>
        <time>2017-09-06T09:12:23Z</time>
      </trkpt>
      <trkpt lat="47.67739" lon="6.20242">
        <ele>325.04</ele>
        <time>2017-09-06T09:12:28Z</time>
      </trkpt>
      <trkpt lat="47.67719" lon="6.2024">
        <ele>324.15</ele>
        <time>2017-09-06T09:12:32Z</time>
      </trkpt>
      <trkpt lat="47.67699" lon="6.20231">
        <ele>322.93</ele>
        <time>2017-09-06T09:12:36Z</time>
      </trkpt>
      <trkpt lat="47.67677" lon="6.20222">
        <ele>322.23</ele>
        <time>2017-09-06T09:12:40Z</time>
      </trkpt>
      <trkpt lat="47.67658" lon="6.20215">
        <ele>321.85</ele>
        <time>2017-09-06T09:12:43Z</time>
      </trkpt>
      <trkpt lat="47.67639" lon="6.20205">
        <ele>321.48</ele>
        <time>2017-09-06T09:12:46Z</time>
      </trkpt>
      <trkpt lat="47.67618" lon="6.20193">
        <ele>321.16</ele>
        <time>2017-09-06T09:12:50Z</time>
      </trkpt>
      <trkpt lat="47.67601" lon="6.20181">
        <ele>321.04</ele>
        <time>2017-09-06T09:12:54Z</time>
      </trkpt>
      <trkpt lat="47.6758" lon="6.20174">
        <ele>321.22</ele>
        <time>2017-09-06T09:12:59Z</time>
      </trkpt>
      <trkpt lat="47.67561" lon="6.2017">
        <ele>321.42</ele>
        <time>2017-09-06T09:13:03Z</time>
      </trkpt>
      <trkpt lat="47.67543" lon="6.20168">
        <ele>321.45</ele>
        <time>2017-09-06T09:13:08Z</time>
      </trkpt>
      <trkpt lat="47.67521" lon="6.20164">
        <ele>321.44</ele>
        <time>2017-09-06T09:13:14Z</time>
      </trkpt>
      <trkpt lat="47.675" lon="6.20161">
        <ele>321.41</ele>
        <time>2017-09-06T09:13:18Z</time>
      </trkpt>
      <trkpt lat="47.67481" lon="6.20158">
        <ele>321.38</ele>
        <time>2017-09-06T09:13:22Z</time>
      </trkpt>
      <trkpt lat="47.67461" lon="6.20153">
        <ele>321.36</ele>
        <time>2017-09-06T09:13:26Z</time>
      </trkpt>
      <trkpt lat="47.67438" lon="6.20154">
        <ele>321.32</ele>
        <time>2017-09-06T09:13:30Z</time>
      </trkpt>
      <trkpt lat="47.67417" lon="6.20158">
        <ele>321.2</ele>
        <time>2017-09-06T09:13:35Z</time>
      </trkpt>
      <trkpt lat="47.67398" lon="6.20168">
        <ele>321.14</ele>
        <time>2017-09-06T09:13:40Z</time>
      </trkpt>
      <trkpt lat="47.67382" lon="6.2018">
        <ele>321.06</ele>
        <time>2017-09-06T09:13:45Z</time>
      </trkpt>
      <trkpt lat="47.67366" lon="6.20194">
        <ele>320.72</ele>
        <time>2017-09-06T09:13:49Z</time>
      </trkpt>
      <trkpt lat="47.67347" lon="6.20209">
        <ele>320.4</ele>
        <time>2017-09-06T09:13:54Z</time>
      </trkpt>
      <trkpt lat="47.67327" lon="6.20222">
        <ele>318.62</ele>
        <time>2017-09-06T09:13:59Z</time>
      </trkpt>
      <trkpt lat="47.67311" lon="6.20236">
        <ele>316.81</ele>
        <time>2017-09-06T09:14:03Z</time>
      </trkpt>
      <trkpt lat="47.67293" lon="6.20253">
        <ele>315.44</ele>
        <time>2017-09-06T09:14:08Z</time>
      </trkpt>
      <trkpt lat="47.67275" lon="6.20268">
        <ele>314.24</ele>
        <time>2017-09-06T09:14:13Z</time>
      </trkpt>
      <trkpt lat="47.67257" lon="6.20277">
        <ele>313.2</ele>
        <time>2017-09-06T09:14:17Z</time>
      </trkpt>
      <trkpt lat="47.67236" lon="6.20288">
        <ele>312.04</ele>
        <time>2017-09-06T09:14:22Z</time>
      </trkpt>
      <trkpt lat="47.6722" lon="6.20308">
        <ele>311.26</ele>
        <time>2017-09-06T09:14:27Z</time>
      </trkpt>
      <trkpt lat="47.67201" lon="6.20311">
        <ele>311.05</ele>
        <time>2017-09-06T09:14:33Z</time>
      </trkpt>
      <trkpt lat="47.67184" lon="6.20293">
        <ele>309.42</ele>
        <time>2017-09-06T09:14:38Z</time>
      </trkpt>
      <trkpt lat="47.67167" lon="6.20277">
        <ele>308.63</ele>
        <time>2017-09-06T09:14:42Z</time>
      </trkpt>
      <trkpt lat="47.6715" lon="6.20259">
        <ele>308.02</ele>
        <time>2017-09-06T09:14:47Z</time>
      </trkpt>
      <trkpt lat="47.67134" lon="6.20242">
        <ele>307.6</ele>
        <time>2017-09-06T09:14:52Z</time>
      </trkpt>
      <trkpt lat="47.67116" lon="6.20226">
        <ele>307.26</ele>
        <time>2017-09-06T09:14:57Z</time>
      </trkpt>
      <trkpt lat="47.671" lon="6.20211">
        <ele>307.09</ele>
        <time>2017-09-06T09:15:02Z</time>
      </trkpt>
      <trkpt lat="47.67085" lon="6.20196">
        <ele>306.88</ele>
        <time>2017-09-06T09:15:07Z</time>
      </trkpt>
      <trkpt lat="47.67069" lon="6.20181">
        <ele>306.71</ele>
        <time>2017-09-06T09:15:12Z</time>
      </trkpt>
      <trkpt lat="47.67053" lon="6.20166">
        <ele>306.52</ele>
        <time>2017-09-06T09:15:17Z</time>
      </trkpt>
      <trkpt lat="47.67039" lon="6.20148">
        <ele>306.44</ele>
        <time>2017-09-06T09:15:22Z</time>
      </trkpt>
      <trkpt lat="47.67025" lon="6.20128">
        <ele>306.15</ele>
        <time>2017-09-06T09:15:27Z</time>
      </trkpt>
      <trkpt lat="47.67012" lon="6.2011">
        <ele>306.07</ele>
        <time>2017-09-06T09:15:32Z</time>
      </trkpt>
      <trkpt lat="47.66999" lon="6.20091">
        <ele>306.04</ele>
        <time>2017-09-06T09:15:37Z</time>
      </trkpt>
      <trkpt lat="47.66985" lon="6.20073">
        <ele>305.92</ele>
        <time>2017-09-06T09:15:41Z</time>
      </trkpt>
      <trkpt lat="47.66967" lon="6.20058">
        <ele>305.93</ele>
        <time>2017-09-06T09:15:47Z</time>
      </trkpt>
      <trkpt lat="47.66951" lon="6.20045">
        <ele>306.17</ele>
        <time>2017-09-06T09:16:21Z</time>
      </trkpt>
      <trkpt lat="47.66937" lon="6.20029">
        <ele>307</ele>
        <time>2017-09-06T09:17:05Z</time>
      </trkpt>
      <trkpt lat="47.66922" lon="6.20012">
        <ele>307.19</ele>
        <time>2017-09-06T09:17:10Z</time>
      </trkpt>
      <trkpt lat="47.66904" lon="6.19996">
        <ele>307.28</ele>
        <time>2017-09-06T09:17:16Z</time>
      </trkpt>
      <trkpt lat="47.66887" lon="6.19979">
        <ele>307.33</ele>
        <time>2017-09-06T09:17:22Z</time>
      </trkpt>
      <trkpt lat="47.66868" lon="6.19962">
        <ele>307.37</ele>
        <time>2017-09-06T09:17:28Z</time>
      </trkpt>
      <trkpt lat="47.66853" lon="6.19947">
        <ele>307.4</ele>
        <time>2017-09-06T09:17:33Z</time>
      </trkpt>
      <trkpt lat="47.66835" lon="6.19935">
        <ele>307.43</ele>
        <time>2017-09-06T09:17:38Z</time>
      </trkpt>
      <trkpt lat="47.66814" lon="6.19923">
        <ele>307.48</ele>
        <time>2017-09-06T09:17:44Z</time>
      </trkpt>
      <trkpt lat="47.66794" lon="6.19908">
        <ele>307.71</ele>
        <time>2017-09-06T09:17:48Z</time>
      </trkpt>
      <trkpt lat="47.66778" lon="6.19892">
        <ele>307.89</ele>
        <time>2017-09-06T09:17:53Z</time>
      </trkpt>
      <trkpt lat="47.66762" lon="6.19877">
        <ele>307.94</ele>
        <time>2017-09-06T09:17:58Z</time>
      </trkpt>
      <trkpt lat="47.66747" lon="6.19859">
        <ele>307.96</ele>
        <time>2017-09-06T09:18:03Z</time>
      </trkpt>
      <trkpt lat="47.66731" lon="6.19843">
        <ele>308</ele>
        <time>2017-09-06T09:18:10Z</time>
      </trkpt>
      <trkpt lat="47.66717" lon="6.19823">
        <ele>308.05</ele>
        <time>2017-09-06T09:18:16Z</time>
      </trkpt>
      <trkpt lat="47.66703" lon="6.19805">
        <ele>308.14</ele>
        <time>2017-09-06T09:18:23Z</time>
      </trkpt>
      <trkpt lat="47.6669" lon="6.19784">
        <ele>308.31</ele>
        <time>2017-09-06T09:18:31Z</time>
      </trkpt>
      <trkpt lat="47.66675" lon="6.19763">
        <ele>308.53</ele>
        <time>2017-09-06T09:18:39Z</time>
      </trkpt>
      <trkpt lat="47.66662" lon="6.19743">
        <ele>308.75</ele>
        <time>2017-09-06T09:18:47Z</time>
      </trkpt>
      <trkpt lat="47.66649" lon="6.19722">
        <ele>309</ele>
        <time>2017-09-06T09:18:56Z</time>
      </trkpt>
      <trkpt lat="47.66636" lon="6.19702">
        <ele>309.28</ele>
        <time>2017-09-06T09:19:06Z</time>
      </trkpt>
      <trkpt lat="47.66622" lon="6.19683">
        <ele>309.58</ele>
        <time>2017-09-06T09:19:15Z</time>
      </trkpt>
      <trkpt lat="47.66608" lon="6.19665">
        <ele>310.07</ele>
        <time>2017-09-06T09:19:27Z</time>
      </trkpt>
      <trkpt lat="47.66591" lon="6.1965">
        <ele>310.75</ele>
        <time>2017-09-06T09:19:41Z</time>
      </trkpt>
      <trkpt lat="47.66577" lon="6.19633">
        <ele>311.63</ele>
        <time>2017-09-06T09:19:57Z</time>
      </trkpt>
      <trkpt lat="47.6656" lon="6.19617">
        <ele>312.01</ele>
        <time>2017-09-06T09:20:04Z</time>
      </trkpt>
      <trkpt lat="47.66544" lon="6.196">
        <ele>312.37</ele>
        <time>2017-09-06T09:20:11Z</time>
      </trkpt>
      <trkpt lat="47.66527" lon="6.19608">
        <ele>312.88</ele>
        <time>2017-09-06T09:20:21Z</time>
      </trkpt>
      <trkpt lat="47.66515" lon="6.19584">
        <ele>314.15</ele>
        <time>2017-09-06T09:20:42Z</time>
      </trkpt>
      <trkpt lat="47.66498" lon="6.19572">
        <ele>314.68</ele>
        <time>2017-09-06T09:20:49Z</time>
      </trkpt>
      <trkpt lat="47.6648" lon="6.19563">
        <ele>315.74</ele>
        <time>2017-09-06T09:21:01Z</time>
      </trkpt>
      <trkpt lat="47.66462" lon="6.19556">
        <ele>316.36</ele>
        <time>2017-09-06T09:21:09Z</time>
      </trkpt>
      <trkpt lat="47.66444" lon="6.1955">
        <ele>316.94</ele>
        <time>2017-09-06T09:21:17Z</time>
      </trkpt>
      <trkpt lat="47.66425" lon="6.19546">
        <ele>317.55</ele>
        <time>2017-09-06T09:21:26Z</time>
      </trkpt>
      <trkpt lat="47.66406" lon="6.19539">
        <ele>318.37</ele>
        <time>2017-09-06T09:21:38Z</time>
      </trkpt>
      <trkpt lat="47.66388" lon="6.1953">
        <ele>318.92</ele>
        <time>2017-09-06T09:21:46Z</time>
      </trkpt>
      <trkpt lat="47.66369" lon="6.19525">
        <ele>319.48</ele>
        <time>2017-09-06T09:21:54Z</time>
      </trkpt>
      <trkpt lat="47.66349" lon="6.19522">
        <ele>320</ele>
        <time>2017-09-06T09:22:01Z</time>
      </trkpt>
      <trkpt lat="47.6633" lon="6.19521">
        <ele>320.56</ele>
        <time>2017-09-06T09:22:08Z</time>
      </trkpt>
      <trkpt lat="47.6631" lon="6.19517">
        <ele>321.02</ele>
        <time>2017-09-06T09:22:14Z</time>
      </trkpt>
      <trkpt lat="47.66292" lon="6.1951">
        <ele>321.54</ele>
        <time>2017-09-06T09:22:21Z</time>
      </trkpt>
      <trkpt lat="47.66272" lon="6.19505">
        <ele>322.36</ele>
        <time>2017-09-06T09:22:27Z</time>
      </trkpt>
      <trkpt lat="47.66254" lon="6.19501">
        <ele>322.81</ele>
        <time>2017-09-06T09:22:32Z</time>
      </trkpt>
      <trkpt lat="47.66235" lon="6.19499">
        <ele>323.12</ele>
        <time>2017-09-06T09:22:38Z</time>
      </trkpt>
      <trkpt lat="47.66217" lon="6.19492">
        <ele>323.41</ele>
        <time>2017-09-06T09:22:44Z</time>
      </trkpt>
      <trkpt lat="47.66196" lon="6.19489">
        <ele>323.73</ele>
        <time>2017-09-06T09:22:51Z</time>
      </trkpt>
      <trkpt lat="47.66176" lon="6.19487">
        <ele>324.04</ele>
        <time>2017-09-06T09:22:58Z</time>
      </trkpt>
      <trkpt lat="47.66155" lon="6.19491">
        <ele>324.32</ele>
        <time>2017-09-06T09:23:05Z</time>
      </trkpt>
      <trkpt lat="47.66136" lon="6.195">
        <ele>324.52</ele>
        <time>2017-09-06T09:23:10Z</time>
      </trkpt>
      <trkpt lat="47.66123" lon="6.19519">
        <ele>324.7</ele>
        <time>2017-09-06T09:23:15Z</time>
      </trkpt>
      <trkpt lat="47.66115" lon="6.19547">
        <ele>324.96</ele>
        <time>2017-09-06T09:23:22Z</time>
      </trkpt>
      <trkpt lat="47.66105" lon="6.19573">
        <ele>325.18</ele>
        <time>2017-09-06T09:23:28Z</time>
      </trkpt>
      <trkpt lat="47.66088" lon="6.1959">
        <ele>325.4</ele>
        <time>2017-09-06T09:23:34Z</time>
      </trkpt>
      <trkpt lat="47.66072" lon="6.19603">
        <ele>325.85</ele>
        <time>2017-09-06T09:23:39Z</time>
      </trkpt>
      <trkpt lat="47.66054" lon="6.19612">
        <ele>326.48</ele>
        <time>2017-09-06T09:23:44Z</time>
      </trkpt>
      <trkpt lat="47.66033" lon="6.19625">
        <ele>326.93</ele>
        <time>2017-09-06T09:23:49Z</time>
      </trkpt>
      <trkpt lat="47.66014" lon="6.19631">
        <ele>326.98</ele>
        <time>2017-09-06T09:23:56Z</time>
      </trkpt>
      <trkpt lat="47.65994" lon="6.19631">
        <ele>327</ele>
        <time>2017-09-06T09:24:03Z</time>
      </trkpt>
      <trkpt lat="47.65976" lon="6.19637">
        <ele>326.99</ele>
        <time>2017-09-06T09:24:08Z</time>
      </trkpt>
      <trkpt lat="47.65962" lon="6.1966">
        <ele>326.88</ele>
        <time>2017-09-06T09:24:12Z</time>
      </trkpt>
      <trkpt lat="47.65956" lon="6.19689">
        <ele>326.76</ele>
        <time>2017-09-06T09:24:16Z</time>
      </trkpt>
      <trkpt lat="47.65944" lon="6.19713">
        <ele>326.72</ele>
        <time>2017-09-06T09:24:22Z</time>
      </trkpt>
      <trkpt lat="47.65927" lon="6.19722">
        <ele>326.65</ele>
        <time>2017-09-06T09:24:28Z</time>
      </trkpt>
      <trkpt lat="47.65908" lon="6.19732">
        <ele>326.52</ele>
        <time>2017-09-06T09:24:35Z</time>
      </trkpt>
      <trkpt lat="47.6589" lon="6.19743">
        <ele>326.19</ele>
        <time>2017-09-06T09:24:42Z</time>
      </trkpt>
      <trkpt lat="47.65874" lon="6.19756">
        <ele>325.42</ele>
        <time>2017-09-06T09:24:46Z</time>
      </trkpt>
      <trkpt lat="47.6586" lon="6.19776">
        <ele>325.03</ele>
        <time>2017-09-06T09:24:49Z</time>
      </trkpt>
      <trkpt lat="47.65846" lon="6.19799">
        <ele>324.63</ele>
        <time>2017-09-06T09:24:52Z</time>
      </trkpt>
      <trkpt lat="47.65831" lon="6.19825">
        <ele>324.18</ele>
        <time>2017-09-06T09:24:56Z</time>
      </trkpt>
      <trkpt lat="47.65817" lon="6.19851">
        <ele>323.85</ele>
        <time>2017-09-06T09:25:00Z</time>
      </trkpt>
      <trkpt lat="47.65802" lon="6.19869">
        <ele>323.62</ele>
        <time>2017-09-06T09:25:04Z</time>
      </trkpt>
      <trkpt lat="47.65786" lon="6.19887">
        <ele>323.28</ele>
        <time>2017-09-06T09:25:09Z</time>
      </trkpt>
      <trkpt lat="47.65772" lon="6.19906">
        <ele>322.85</ele>
        <time>2017-09-06T09:25:13Z</time>
      </trkpt>
      <trkpt lat="47.6576" lon="6.19928">
        <ele>322.51</ele>
        <time>2017-09-06T09:25:16Z</time>
      </trkpt>
      <trkpt lat="47.65749" lon="6.19949">
        <ele>322.1</ele>
        <time>2017-09-06T09:25:20Z</time>
      </trkpt>
      <trkpt lat="47.65739" lon="6.19976">
        <ele>321.23</ele>
        <time>2017-09-06T09:25:25Z</time>
      </trkpt>
      <trkpt lat="47.65728" lon="6.2">
        <ele>320.4</ele>
        <time>2017-09-06T09:25:29Z</time>
      </trkpt>
      <trkpt lat="47.65715" lon="6.20024">
        <ele>319.5</ele>
        <time>2017-09-06T09:25:33Z</time>
      </trkpt>
      <trkpt lat="47.657" lon="6.20045">
        <ele>318.77</ele>
        <time>2017-09-06T09:25:37Z</time>
      </trkpt>
      <trkpt lat="47.65685" lon="6.20064">
        <ele>317.8</ele>
        <time>2017-09-06T09:25:41Z</time>
      </trkpt>
      <trkpt lat="47.65671" lon="6.20083">
        <ele>315.8</ele>
        <time>2017-09-06T09:25:46Z</time>
      </trkpt>
      <trkpt lat="47.65657" lon="6.20105">
        <ele>313.75</ele>
        <time>2017-09-06T09:25:51Z</time>
      </trkpt>
      <trkpt lat="47.65644" lon="6.20128">
        <ele>312.82</ele>
        <time>2017-09-06T09:25:57Z</time>
      </trkpt>
      <trkpt lat="47.65637" lon="6.20154">
        <ele>312.12</ele>
        <time>2017-09-06T09:26:06Z</time>
      </trkpt>
      <trkpt lat="47.6562" lon="6.20141">
        <ele>310.98</ele>
        <time>2017-09-06T09:26:18Z</time>
      </trkpt>
      <trkpt lat="47.65605" lon="6.20123">
        <ele>310.1</ele>
        <time>2017-09-06T09:26:26Z</time>
      </trkpt>
      <trkpt lat="47.6559" lon="6.20105">
        <ele>309.39</ele>
        <time>2017-09-06T09:26:33Z</time>
      </trkpt>
      <trkpt lat="47.65574" lon="6.20091">
        <ele>308.77</ele>
        <time>2017-09-06T09:26:39Z</time>
      </trkpt>
      <trkpt lat="47.6556" lon="6.20075">
        <ele>308.2</ele>
        <time>2017-09-06T09:26:45Z</time>
      </trkpt>
      <trkpt lat="47.65545" lon="6.20059">
        <ele>307.66</ele>
        <time>2017-09-06T09:26:51Z</time>
      </trkpt>
      <trkpt lat="47.65528" lon="6.20039">
        <ele>307.1</ele>
        <time>2017-09-06T09:26:57Z</time>
      </trkpt>
      <trkpt lat="47.65514" lon="6.20019">
        <ele>306.51</ele>
        <time>2017-09-06T09:27:03Z</time>
      </trkpt>
      <trkpt lat="47.655" lon="6.19999">
        <ele>305.7</ele>
        <time>2017-09-06T09:27:10Z</time>
      </trkpt>
      <trkpt lat="47.65485" lon="6.19975">
        <ele>302.58</ele>
        <time>2017-09-06T09:27:16Z</time>
      </trkpt>
      <trkpt lat="47.65471" lon="6.19952">
        <ele>301.26</ele>
        <time>2017-09-06T09:27:21Z</time>
      </trkpt>
      <trkpt lat="47.65458" lon="6.19928">
        <ele>300.83</ele>
        <time>2017-09-06T09:27:27Z</time>
      </trkpt>
      <trkpt lat="47.65447" lon="6.19903">
        <ele>300.33</ele>
        <time>2017-09-06T09:27:33Z</time>
      </trkpt>
      <trkpt lat="47.65439" lon="6.19879">
        <ele>298.97</ele>
        <time>2017-09-06T09:27:38Z</time>
      </trkpt>
      <trkpt lat="47.65429" lon="6.19853">
        <ele>298.23</ele>
        <time>2017-09-06T09:27:46Z</time>
      </trkpt>
      <trkpt lat="47.65418" lon="6.19831">
        <ele>297.65</ele>
        <time>2017-09-06T09:27:52Z</time>
      </trkpt>
      <trkpt lat="47.65405" lon="6.19812">
        <ele>294.86</ele>
        <time>2017-09-06T09:27:57Z</time>
      </trkpt>
      <trkpt lat="47.65393" lon="6.19789">
        <ele>293.1</ele>
        <time>2017-09-06T09:28:02Z</time>
      </trkpt>
      <trkpt lat="47.65381" lon="6.19763">
        <ele>292.87</ele>
        <time>2017-09-06T09:28:08Z</time>
      </trkpt>
      <trkpt lat="47.6537" lon="6.19738">
        <ele>292.54</ele>
        <time>2017-09-06T09:28:14Z</time>
      </trkpt>
      <trkpt lat="47.65358" lon="6.19715">
        <ele>291.64</ele>
        <time>2017-09-06T09:28:19Z</time>
      </trkpt>
      <trkpt lat="47.65348" lon="6.1969">
        <ele>291.19</ele>
        <time>2017-09-06T09:28:24Z</time>
      </trkpt>
      <trkpt lat="47.65337" lon="6.19663">
        <ele>291</ele>
        <time>2017-09-06T09:28:29Z</time>
      </trkpt>
      <trkpt lat="47.65327" lon="6.19634">
        <ele>290.86</ele>
        <time>2017-09-06T09:28:35Z</time>
      </trkpt>
      <trkpt lat="47.65316" lon="6.19603">
        <ele>290.4</ele>
        <time>2017-09-06T09:28:40Z</time>
      </trkpt>
      <trkpt lat="47.65307" lon="6.19579">
        <ele>290.24</ele>
        <time>2017-09-06T09:28:46Z</time>
      </trkpt>
      <trkpt lat="47.65293" lon="6.19556">
        <ele>290.07</ele>
        <time>2017-09-06T09:28:53Z</time>
      </trkpt>
      <trkpt lat="47.65286" lon="6.1953">
        <ele>289.8</ele>
        <time>2017-09-06T09:29:00Z</time>
      </trkpt>
      <trkpt lat="47.65282" lon="6.195">
        <ele>289.45</ele>
        <time>2017-09-06T09:29:07Z</time>
      </trkpt>
      <trkpt lat="47.65271" lon="6.19477">
        <ele>289.01</ele>
        <time>2017-09-06T09:29:15Z</time>
      </trkpt>
      <trkpt lat="47.65258" lon="6.19457">
        <ele>288.4</ele>
        <time>2017-09-06T09:29:25Z</time>
      </trkpt>
      <trkpt lat="47.65242" lon="6.19442">
        <ele>287.92</ele>
        <time>2017-09-06T09:29:33Z</time>
      </trkpt>
      <trkpt lat="47.65227" lon="6.19423">
        <ele>287.56</ele>
        <time>2017-09-06T09:29:39Z</time>
      </trkpt>
      <trkpt lat="47.65215" lon="6.19402">
        <ele>287</ele>
        <time>2017-09-06T09:29:46Z</time>
      </trkpt>
      <trkpt lat="47.65205" lon="6.19379">
        <ele>286.39</ele>
        <time>2017-09-06T09:29:53Z</time>
      </trkpt>
      <trkpt lat="47.65194" lon="6.19356">
        <ele>285.72</ele>
        <time>2017-09-06T09:30:01Z</time>
      </trkpt>
      <trkpt lat="47.65183" lon="6.19334">
        <ele>284.94</ele>
        <time>2017-09-06T09:30:11Z</time>
      </trkpt>
      <trkpt lat="47.65168" lon="6.19315">
        <ele>284.25</ele>
        <time>2017-09-06T09:30:20Z</time>
      </trkpt>
      <trkpt lat="47.65152" lon="6.19301">
        <ele>283.7</ele>
        <time>2017-09-06T09:30:27Z</time>
      </trkpt>
      <trkpt lat="47.65137" lon="6.19285">
        <ele>283.23</ele>
        <time>2017-09-06T09:30:33Z</time>
      </trkpt>
      <trkpt lat="47.65122" lon="6.19267">
        <ele>282.74</ele>
        <time>2017-09-06T09:30:39Z</time>
      </trkpt>
      <trkpt lat="47.65108" lon="6.19248">
        <ele>282.26</ele>
        <time>2017-09-06T09:30:45Z</time>
      </trkpt>
      <trkpt lat="47.65095" lon="6.19228">
        <ele>281.88</ele>
        <time>2017-09-06T09:30:50Z</time>
      </trkpt>
      <trkpt lat="47.65081" lon="6.19207">
        <ele>281.45</ele>
        <time>2017-09-06T09:30:56Z</time>
      </trkpt>
      <trkpt lat="47.65068" lon="6.19188">
        <ele>281.11</ele>
        <time>2017-09-06T09:31:01Z</time>
      </trkpt>
      <trkpt lat="47.65056" lon="6.19168">
        <ele>280.72</ele>
        <time>2017-09-06T09:31:07Z</time>
      </trkpt>
      <trkpt lat="47.65043" lon="6.19148">
        <ele>280.37</ele>
        <time>2017-09-06T09:31:13Z</time>
      </trkpt>
      <trkpt lat="47.65029" lon="6.19123">
        <ele>278.9</ele>
        <time>2017-09-06T09:31:20Z</time>
      </trkpt>
      <trkpt lat="47.65017" lon="6.19102">
        <ele>278.14</ele>
        <time>2017-09-06T09:31:25Z</time>
      </trkpt>
      <trkpt lat="47.65004" lon="6.19079">
        <ele>277.86</ele>
        <time>2017-09-06T09:31:31Z</time>
      </trkpt>
      <trkpt lat="47.64991" lon="6.19054">
        <ele>276.97</ele>
        <time>2017-09-06T09:31:36Z</time>
      </trkpt>
      <trkpt lat="47.64979" lon="6.19032">
        <ele>276.69</ele>
        <time>2017-09-06T09:31:41Z</time>
      </trkpt>
      <trkpt lat="47.64965" lon="6.19012">
        <ele>276.58</ele>
        <time>2017-09-06T09:31:48Z</time>
      </trkpt>
      <trkpt lat="47.64953" lon="6.18992">
        <ele>276.48</ele>
        <time>2017-09-06T09:31:53Z</time>
      </trkpt>
      <trkpt lat="47.6494" lon="6.18967">
        <ele>276.32</ele>
        <time>2017-09-06T09:31:59Z</time>
      </trkpt>
      <trkpt lat="47.64927" lon="6.18946">
        <ele>275.58</ele>
        <time>2017-09-06T09:32:04Z</time>
      </trkpt>
      <trkpt lat="47.64915" lon="6.18926">
        <ele>275.23</ele>
        <time>2017-09-06T09:32:09Z</time>
      </trkpt>
      <trkpt lat="47.649" lon="6.18904">
        <ele>275.05</ele>
        <time>2017-09-06T09:32:17Z</time>
      </trkpt>
      <trkpt lat="47.64889" lon="6.1888">
        <ele>274.87</ele>
        <time>2017-09-06T09:32:23Z</time>
      </trkpt>
      <trkpt lat="47.64879" lon="6.18857">
        <ele>274.63</ele>
        <time>2017-09-06T09:32:30Z</time>
      </trkpt>
      <trkpt lat="47.64868" lon="6.18835">
        <ele>274.39</ele>
        <time>2017-09-06T09:32:36Z</time>
      </trkpt>
      <trkpt lat="47.64856" lon="6.18811">
        <ele>274.09</ele>
        <time>2017-09-06T09:32:43Z</time>
      </trkpt>
      <trkpt lat="47.64845" lon="6.18787">
        <ele>273.83</ele>
        <time>2017-09-06T09:32:49Z</time>
      </trkpt>
      <trkpt lat="47.64835" lon="6.18762">
        <ele>273.29</ele>
        <time>2017-09-06T09:32:55Z</time>
      </trkpt>
      <trkpt lat="47.64824" lon="6.18736">
        <ele>272.24</ele>
        <time>2017-09-06T09:33:01Z</time>
      </trkpt>
      <trkpt lat="47.64811" lon="6.18712">
        <ele>271.37</ele>
        <time>2017-09-06T09:33:06Z</time>
      </trkpt>
      <trkpt lat="47.64797" lon="6.18686">
        <ele>270.88</ele>
        <time>2017-09-06T09:33:11Z</time>
      </trkpt>
      <trkpt lat="47.64785" lon="6.18663">
        <ele>270.56</ele>
        <time>2017-09-06T09:33:15Z</time>
      </trkpt>
      <trkpt lat="47.64773" lon="6.18642">
        <ele>270.24</ele>
        <time>2017-09-06T09:33:19Z</time>
      </trkpt>
      <trkpt lat="47.64762" lon="6.18621">
        <ele>269.94</ele>
        <time>2017-09-06T09:33:23Z</time>
      </trkpt>
      <trkpt lat="47.64749" lon="6.18597">
        <ele>269.63</ele>
        <time>2017-09-06T09:33:28Z</time>
      </trkpt>
      <trkpt lat="47.64736" lon="6.18575">
        <ele>269.56</ele>
        <time>2017-09-06T09:33:33Z</time>
      </trkpt>
      <trkpt lat="47.64725" lon="6.18554">
        <ele>269.47</ele>
        <time>2017-09-06T09:33:38Z</time>
      </trkpt>
      <trkpt lat="47.64713" lon="6.18531">
        <ele>269.35</ele>
        <time>2017-09-06T09:33:44Z</time>
      </trkpt>
      <trkpt lat="47.64701" lon="6.18509">
        <ele>269.14</ele>
        <time>2017-09-06T09:33:52Z</time>
      </trkpt>
      <trkpt lat="47.64687" lon="6.18487">
        <ele>268.92</ele>
        <time>2017-09-06T09:34:00Z</time>
      </trkpt>
      <trkpt lat="47.64668" lon="6.18487">
        <ele>268.66</ele>
        <time>2017-09-06T09:34:08Z</time>
      </trkpt>
      <trkpt lat="47.64652" lon="6.18502">
        <ele>268.44</ele>
        <time>2017-09-06T09:34:14Z</time>
      </trkpt>
      <trkpt lat="47.64638" lon="6.18521">
        <ele>268.17</ele>
        <time>2017-09-06T09:34:21Z</time>
      </trkpt>
      <trkpt lat="47.64628" lon="6.18545">
        <ele>267.91</ele>
        <time>2017-09-06T09:34:28Z</time>
      </trkpt>
      <trkpt lat="47.6462" lon="6.18571">
        <ele>267.54</ele>
        <time>2017-09-06T09:34:38Z</time>
      </trkpt>
      <trkpt lat="47.64609" lon="6.18595">
        <ele>267.21</ele>
        <time>2017-09-06T09:34:48Z</time>
      </trkpt>
      <trkpt lat="47.64591" lon="6.18589">
        <ele>266.95</ele>
        <time>2017-09-06T09:34:56Z</time>
      </trkpt>
      <trkpt lat="47.64574" lon="6.18575">
        <ele>266.61</ele>
        <time>2017-09-06T09:35:05Z</time>
      </trkpt>
      <trkpt lat="47.64556" lon="6.18564">
        <ele>266.21</ele>
        <time>2017-09-06T09:35:14Z</time>
      </trkpt>
      <trkpt lat="47.64535" lon="6.18568">
        <ele>265.64</ele>
        <time>2017-09-06T09:35:26Z</time>
      </trkpt>
      <trkpt lat="47.64517" lon="6.18558">
        <ele>265.35</ele>
        <time>2017-09-06T09:35:32Z</time>
      </trkpt>
      <trkpt lat="47.64498" lon="6.18552">
        <ele>264.91</ele>
        <time>2017-09-06T09:35:41Z</time>
      </trkpt>
      <trkpt lat="47.6448" lon="6.18543">
        <ele>264.07</ele>
        <time>2017-09-06T09:36:31Z</time>
      </trkpt>
      <trkpt lat="47.64466" lon="6.18526">
        <ele>263.48</ele>
        <time>2017-09-06T09:36:41Z</time>
      </trkpt>
      <trkpt lat="47.64451" lon="6.18508">
        <ele>262.96</ele>
        <time>2017-09-06T09:36:51Z</time>
      </trkpt>
      <trkpt lat="47.64438" lon="6.1849">
        <ele>262.58</ele>
        <time>2017-09-06T09:36:59Z</time>
      </trkpt>
      <trkpt lat="47.64418" lon="6.18485">
        <ele>262.07</ele>
        <time>2017-09-06T09:37:10Z</time>
      </trkpt>
      <trkpt lat="47.64399" lon="6.1848">
        <ele>260.66</ele>
        <time>2017-09-06T09:37:38Z</time>
      </trkpt>
      <trkpt lat="47.64379" lon="6.18474">
        <ele>258.97</ele>
        <time>2017-09-06T09:37:42Z</time>
      </trkpt>
      <trkpt lat="47.64359" lon="6.18465">
        <ele>258.63</ele>
        <time>2017-09-06T09:37:48Z</time>
      </trkpt>
      <trkpt lat="47.64342" lon="6.1845">
        <ele>258.34</ele>
        <time>2017-09-06T09:37:54Z</time>
      </trkpt>
      <trkpt lat="47.64341" lon="6.18422">
        <ele>257.9</ele>
        <time>2017-09-06T09:38:01Z</time>
      </trkpt>
      <trkpt lat="47.64351" lon="6.184">
        <ele>257.45</ele>
        <time>2017-09-06T09:38:07Z</time>
      </trkpt>
      <trkpt lat="47.64364" lon="6.18379">
        <ele>257.01</ele>
        <time>2017-09-06T09:38:12Z</time>
      </trkpt>
      <trkpt lat="47.6438" lon="6.18363">
        <ele>256.32</ele>
        <time>2017-09-06T09:38:17Z</time>
      </trkpt>
      <trkpt lat="47.64395" lon="6.18346">
        <ele>254.86</ele>
        <time>2017-09-06T09:38:25Z</time>
      </trkpt>
      <trkpt lat="47.64408" lon="6.18327">
        <ele>252.12</ele>
        <time>2017-09-06T09:38:34Z</time>
      </trkpt>
      <trkpt lat="47.64425" lon="6.18311">
        <ele>249.04</ele>
        <time>2017-09-06T09:38:43Z</time>
      </trkpt>
      <trkpt lat="47.64444" lon="6.18316">
        <ele>242.73</ele>
        <time>2017-09-06T09:39:27Z</time>
      </trkpt>
    </trkseg>
  </trk>
</gpx>